Time,TemperatureF,DewpointF,PressureIn,WindDirection,WindDirectionDegrees,WindSpeedMPH,WindSpeedGustMPH,Humidity,HourlyPrecipIn,Conditions,Clouds,dailyrainin,SoftwareType,DateUTC
2013-08-27 00:03:00,70.6,70.3,29.80,North,5,0.0,4.0,99,0.02,,BKN100,0.00,VWS V14.01,2013-08-27 05:03:00,
2013-08-27 00:04:00,70.7,70.4,29.80,North,5,0.0,4.0,99,0.02,,BKN100,0.00,VWS V14.01,2013-08-27 05:04:00,
2013-08-27 00:08:00,70.6,70.3,29.80,North,5,0.0,4.0,99,0.02,,BKN100,0.00,VWS V14.01,2013-08-27 05:08:00,
2013-08-27 00:09:00,70.6,70.3,29.80,North,5,0.0,4.0,99,0.02,,BKN100,0.00,VWS V14.01,2013-08-27 05:09:00,
2013-08-27 00:10:00,70.6,70.3,29.79,North,5,0.0,4.0,99,0.02,,BKN100,0.00,VWS V14.01,2013-08-27 05:10:00,
2013-08-27 00:14:00,70.6,70.3,29.79,North,5,0.0,4.0,99,0.02,,BKN100,0.00,VWS V14.01,2013-08-27 05:14:00,
2013-08-27 00:16:00,70.6,70.3,29.79,North,360,1.0,4.0,99,0.02,,BKN100,0.00,VWS V14.01,2013-08-27 05:16:00,
2013-08-27 00:19:00,70.3,69.7,29.79,NNW,330,6.0,6.0,98,0.02,,BKN100,0.00,VWS V14.01,2013-08-27 05:19:00,
2013-08-27 00:20:00,70.1,69.5,29.79,NNW,339,3.0,7.0,98,0.02,,BKN100,0.00,VWS V14.01,2013-08-27 05:20:00,
2013-08-27 00:21:00,69.7,69.1,29.79,NNE,28,2.0,7.0,98,0.02,,BKN100,0.00,VWS V14.01,2013-08-27 05:21:00,
2013-08-27 00:24:00,69.3,68.7,29.79,NE,35,2.0,2.0,98,0.01,,BKN100,0.00,VWS V14.01,2013-08-27 05:24:00,
2013-08-27 00:25:00,69.1,68.5,29.79,NNE,26,2.0,6.0,98,0.01,,BKN100,0.00,VWS V14.01,2013-08-27 05:25:00,
2013-08-27 00:26:00,69.0,68.1,29.79,NNE,20,1.0,6.0,97,0.01,,BKN100,0.00,VWS V14.01,2013-08-27 05:26:00,
2013-08-27 00:29:00,68.8,68.2,29.79,NNE,21,0.0,6.0,98,0.01,,BKN100,0.00,VWS V14.01,2013-08-27 05:29:00,
2013-08-27 00:30:00,68.8,68.2,29.79,NNE,21,0.0,6.0,98,0.01,,BKN100,0.00,VWS V14.01,2013-08-27 05:30:00,
2013-08-27 00:31:00,68.8,68.2,29.79,NNE,21,0.0,6.0,98,0.01,,BKN100,0.00,VWS V14.01,2013-08-27 05:31:00,
2013-08-27 00:32:00,68.8,68.2,29.79,NNE,21,0.0,6.0,98,0.01,,BKN100,0.00,VWS V14.01,2013-08-27 05:32:00,
2013-08-27 00:34:00,68.7,68.1,29.78,NNE,21,0.0,6.0,98,0.01,,BKN100,0.00,VWS V14.01,2013-08-27 05:34:00,
2013-08-27 00:35:00,68.7,68.1,29.78,NNE,21,0.0,6.0,98,0.01,,BKN100,0.00,VWS V14.01,2013-08-27 05:35:00,
2013-08-27 00:36:00,68.7,68.1,29.78,NNE,21,0.0,6.0,98,0.01,,BKN100,0.00,VWS V14.01,2013-08-27 05:36:00,
2013-08-27 00:37:00,68.7,68.1,29.78,NNE,21,0.0,6.0,98,0.01,,BKN100,0.00,VWS V14.01,2013-08-27 05:37:00,
2013-08-27 00:39:00,68.7,68.1,29.78,NNE,21,0.0,6.0,98,0.01,,BKN100,0.00,VWS V14.01,2013-08-27 05:39:00,
2013-08-27 00:40:00,68.7,68.1,29.78,NNE,21,0.0,6.0,98,0.01,,BKN100,0.00,VWS V14.01,2013-08-27 05:40:00,
2013-08-27 00:41:00,68.7,68.1,29.78,NNE,21,0.0,6.0,98,0.01,,BKN100,0.00,VWS V14.01,2013-08-27 05:41:00,
2013-08-27 00:42:00,68.7,68.1,29.78,NNE,21,0.0,6.0,98,0.01,,BKN100,0.00,VWS V14.01,2013-08-27 05:42:00,
2013-08-27 00:45:00,68.7,68.1,29.78,NNE,21,2.0,6.0,98,0.01,,BKN100,0.00,VWS V14.01,2013-08-27 05:45:00,
2013-08-27 00:46:00,68.8,68.2,29.78,NNE,21,0.0,6.0,98,0.01,,BKN100,0.00,VWS V14.01,2013-08-27 05:46:00,
2013-08-27 00:47:00,68.7,68.1,29.78,NNE,21,0.0,6.0,98,0.01,,BKN100,0.00,VWS V14.01,2013-08-27 05:47:00,
2013-08-27 00:50:00,68.7,68.1,29.78,NNE,21,0.0,6.0,98,0.01,,BKN100,0.00,VWS V14.01,2013-08-27 05:50:00,
2013-08-27 00:51:00,68.7,68.1,29.77,NNE,21,0.0,6.0,98,0.01,,BKN100,0.00,VWS V14.01,2013-08-27 05:51:00,
2013-08-27 00:52:00,68.7,68.1,29.77,NNE,21,0.0,6.0,98,0.01,,BKN100,0.00,VWS V14.01,2013-08-27 05:52:00,
2013-08-27 00:55:00,68.7,68.1,29.77,NNE,21,0.0,1.0,98,0.00,,BKN100,0.00,VWS V14.01,2013-08-27 05:55:00,
2013-08-27 00:57:00,68.7,68.4,29.78,NNE,21,1.0,1.0,99,0.00,,BKN100,0.00,VWS V14.01,2013-08-27 05:57:00,
2013-08-27 01:00:00,68.8,68.5,29.77,NNE,21,1.0,1.0,99,0.00,,BKN100,0.00,VWS V14.01,2013-08-27 06:00:00,
2013-08-27 01:01:00,68.8,68.5,29.77,NNE,21,0.0,2.0,99,0.00,,BKN100,0.00,VWS V14.01,2013-08-27 06:01:00,
2013-08-27 01:02:00,68.8,68.5,29.77,NNE,21,0.0,2.0,99,0.00,,BKN100,0.00,VWS V14.01,2013-08-27 06:02:00,
2013-08-27 01:06:00,68.9,68.6,29.76,NNE,21,0.0,3.0,99,0.00,,OVC040,0.00,VWS V14.01,2013-08-27 06:06:00,
2013-08-27 01:07:00,68.9,68.3,29.77,NNE,21,0.0,3.0,98,0.00,,OVC040,0.00,VWS V14.01,2013-08-27 06:07:00,
2013-08-27 01:08:00,68.9,68.3,29.77,NNE,21,0.0,3.0,98,0.00,,OVC040,0.00,VWS V14.01,2013-08-27 06:08:00,
2013-08-27 01:11:00,68.9,68.3,29.77,NNE,21,1.0,3.0,98,0.00,,OVC040,0.00,VWS V14.01,2013-08-27 06:11:00,
2013-08-27 01:12:00,68.9,68.3,29.78,NNE,21,0.0,3.0,98,0.00,,-RA,0.00,VWS V14.01,2013-08-27 06:12:00,
2013-08-27 01:13:00,68.9,68.3,29.78,NNE,21,0.0,3.0,98,0.00,,-RA,0.00,VWS V14.01,2013-08-27 06:13:00,
2013-08-27 01:16:00,69.0,68.7,29.78,NNE,21,1.0,3.0,99,0.00,,-RA,0.00,VWS V14.01,2013-08-27 06:16:00,
2013-08-27 01:17:00,69.0,68.7,29.77,NNE,21,0.0,3.0,99,0.00,,-RA,0.00,VWS V14.01,2013-08-27 06:17:00,
2013-08-27 01:18:00,69.0,68.7,29.77,NNE,21,0.0,3.0,99,0.00,,-RA,0.00,VWS V14.01,2013-08-27 06:18:00,
2013-08-27 01:20:00,69.0,68.7,29.77,NNE,21,0.0,3.0,99,0.02,,-RA,0.02,VWS V14.01,2013-08-27 06:20:00,
2013-08-27 01:21:00,69.0,68.7,29.77,NNE,21,0.0,3.0,99,0.03,,OVC080,0.03,VWS V14.01,2013-08-27 06:21:00,
2013-08-27 01:22:00,69.0,68.7,29.77,NNE,21,0.0,3.0,99,0.04,,OVC080,0.04,VWS V14.01,2013-08-27 06:22:00,
2013-08-27 01:23:00,69.0,68.7,29.76,NNE,21,0.0,0.0,99,0.05,,OVC080,0.05,VWS V14.01,2013-08-27 06:23:00,
2013-08-27 01:25:00,69.1,68.8,29.77,NNE,21,0.0,0.0,99,0.09,,OVC080,0.09,VWS V14.01,2013-08-27 06:25:00,
2013-08-27 01:26:00,69.1,68.8,29.77,NNE,21,0.0,0.0,99,0.11,,OVC080,0.11,VWS V14.01,2013-08-27 06:26:00,
2013-08-27 01:27:00,69.1,68.8,29.77,NNE,21,0.0,0.0,99,0.15,,OVC080,0.15,VWS V14.01,2013-08-27 06:27:00,
2013-08-27 01:28:00,69.1,68.8,29.77,NNE,21,0.0,0.0,99,0.17,,OVC080,0.17,VWS V14.01,2013-08-27 06:28:00,
2013-08-27 01:29:00,69.1,68.8,29.77,NNE,21,1.0,1.0,99,0.19,,OVC080,0.19,VWS V14.01,2013-08-27 06:29:00,
2013-08-27 01:30:00,69.2,68.9,29.77,NNE,20,2.0,2.0,99,0.21,,OVC080,0.21,VWS V14.01,2013-08-27 06:30:00,
2013-08-27 01:31:00,69.2,68.9,29.77,NNE,20,0.0,2.0,99,0.22,,OVC080,0.22,VWS V14.01,2013-08-27 06:31:00,
2013-08-27 01:33:00,69.2,68.9,29.76,NNE,20,0.0,2.0,99,0.26,,OVC080,0.26,VWS V14.01,2013-08-27 06:33:00,
2013-08-27 01:34:00,69.2,68.9,29.76,NNE,22,0.0,2.0,99,0.29,,OVC080,0.29,VWS V14.01,2013-08-27 06:34:00,
2013-08-27 01:36:00,69.2,68.9,29.75,NNE,22,2.0,2.0,99,0.34,,OVC080,0.34,VWS V14.01,2013-08-27 06:36:00,
2013-08-27 01:38:00,69.3,69.0,29.76,NNE,22,0.0,2.0,99,0.41,,OVC080,0.41,VWS V14.01,2013-08-27 06:38:00,
2013-08-27 01:39:00,69.3,69.0,29.75,NNE,22,5.0,5.0,99,0.44,,OVC080,0.44,VWS V14.01,2013-08-27 06:39:00,
2013-08-27 01:41:00,69.3,69.0,29.75,NNE,22,0.0,5.0,99,0.47,,OVC080,0.47,VWS V14.01,2013-08-27 06:41:00,
2013-08-27 01:43:00,69.3,69.0,29.75,NE,37,0.0,5.0,99,0.52,,,0.52,VWS V14.01,2013-08-27 06:43:00,
2013-08-27 01:45:00,69.3,69.0,29.75,NE,37,0.0,5.0,99,0.54,,,0.54,VWS V14.01,2013-08-27 06:45:00,
2013-08-27 01:46:00,69.3,69.0,29.75,NE,37,0.0,5.0,99,0.54,,,0.54,VWS V14.01,2013-08-27 06:46:00,
2013-08-27 01:48:00,69.3,69.0,29.76,NE,37,0.0,5.0,99,0.54,,,0.54,VWS V14.01,2013-08-27 06:48:00,
2013-08-27 01:50:00,69.4,69.1,29.76,NE,36,0.0,5.0,99,0.54,,,0.54,VWS V14.01,2013-08-27 06:50:00,
2013-08-27 01:51:00,69.3,69.0,29.76,NE,36,0.0,5.0,99,0.54,,,0.54,VWS V14.01,2013-08-27 06:51:00,
2013-08-27 01:52:00,69.4,69.1,29.76,NE,36,0.0,5.0,99,0.55,,,0.55,VWS V14.01,2013-08-27 06:52:00,
2013-08-27 01:53:00,69.4,69.1,29.77,NNE,28,2.0,2.0,99,0.55,,,0.55,VWS V14.01,2013-08-27 06:53:00,
2013-08-27 01:55:00,69.4,69.1,29.77,NNW,347,2.0,5.0,99,0.55,,,0.55,VWS V14.01,2013-08-27 06:55:00,
2013-08-27 01:56:00,69.5,69.2,29.77,NNW,338,5.0,6.0,99,0.55,,,0.55,VWS V14.01,2013-08-27 06:56:00,
2013-08-27 01:57:00,69.5,69.2,29.77,NNW,340,5.0,6.0,99,0.55,,,0.55,VWS V14.01,2013-08-27 06:57:00,
2013-08-27 01:59:00,69.5,69.2,29.77,NW,326,5.0,6.0,99,0.55,,,0.55,VWS V14.01,2013-08-27 06:59:00,
2013-08-27 02:00:00,69.5,69.2,29.78,NNW,347,7.0,7.0,99,0.55,,,0.55,VWS V14.01,2013-08-27 07:00:00,
2013-08-27 02:02:00,69.5,69.2,29.78,NNW,336,7.0,8.0,99,0.55,,,0.55,VWS V14.01,2013-08-27 07:02:00,
2013-08-27 02:04:00,69.5,69.2,29.78,NNW,341,7.0,8.0,99,0.56,,,0.56,VWS V14.01,2013-08-27 07:04:00,
2013-08-27 02:05:00,69.5,69.2,29.78,NNW,344,7.0,10.0,99,0.56,,,0.56,VWS V14.01,2013-08-27 07:05:00,
2013-08-27 02:07:00,69.5,69.2,29.79,NW,326,5.0,10.0,99,0.56,,,0.56,VWS V14.01,2013-08-27 07:07:00,
2013-08-27 02:09:00,69.3,69.0,29.79,NNW,342,5.0,10.0,99,0.56,,,0.56,VWS V14.01,2013-08-27 07:09:00,
2013-08-27 02:10:00,69.3,69.0,29.79,NNW,344,5.0,10.0,99,0.57,,,0.57,VWS V14.01,2013-08-27 07:10:00,
2013-08-27 02:12:00,69.1,68.5,29.78,NNW,331,6.0,10.0,98,0.60,,,0.60,VWS V14.01,2013-08-27 07:12:00,
2013-08-27 02:13:00,69.1,68.5,29.78,NNW,342,4.0,10.0,98,0.60,,,0.60,VWS V14.01,2013-08-27 07:13:00,
2013-08-27 02:14:00,69.0,68.4,29.77,NNW,346,1.0,10.0,98,0.62,,,0.62,VWS V14.01,2013-08-27 07:14:00,
2013-08-27 02:15:00,68.9,68.3,29.76,NNW,346,0.0,10.0,98,0.64,,,0.64,VWS V14.01,2013-08-27 07:15:00,
2013-08-27 02:17:00,68.9,68.3,29.75,NNW,346,0.0,10.0,98,0.67,,,0.67,VWS V14.01,2013-08-27 07:17:00,
2013-08-27 02:18:00,68.9,68.3,29.75,NNW,346,0.0,10.0,98,0.67,,,0.67,VWS V14.01,2013-08-27 07:18:00,
2013-08-27 02:19:00,68.9,68.6,29.74,NNW,346,0.0,10.0,99,0.69,,,0.69,VWS V14.01,2013-08-27 07:19:00,
2013-08-27 02:20:00,68.9,68.6,29.74,NNW,346,0.0,10.0,99,0.70,,,0.70,VWS V14.01,2013-08-27 07:20:00,
2013-08-27 02:22:00,69.0,68.7,29.74,NNW,346,0.0,10.0,99,0.72,,,0.72,VWS V14.01,2013-08-27 07:22:00,
2013-08-27 02:23:00,69.0,68.7,29.74,NNW,346,0.0,10.0,99,0.72,,,0.72,VWS V14.01,2013-08-27 07:23:00,
2013-08-27 02:24:00,69.0,68.7,29.75,SSW,204,0.0,3.0,99,0.67,,,0.72,VWS V14.01,2013-08-27 07:24:00,
2013-08-27 02:25:00,69.0,68.7,29.75,SSW,204,0.0,3.0,99,0.68,,,0.73,VWS V14.01,2013-08-27 07:25:00,
2013-08-27 02:26:00,69.1,68.8,29.75,SSW,204,0.0,3.0,99,0.68,,,0.73,VWS V14.01,2013-08-27 07:26:00,
2013-08-27 02:28:00,69.1,68.8,29.75,SSW,204,0.0,3.0,99,0.69,,,0.74,VWS V14.01,2013-08-27 07:28:00,
2013-08-27 02:29:00,69.2,68.9,29.75,SSW,204,0.0,3.0,99,0.70,,,0.75,VWS V14.01,2013-08-27 07:29:00,
2013-08-27 02:30:00,69.2,68.9,29.75,SSW,204,0.0,3.0,99,0.71,,,0.76,VWS V14.01,2013-08-27 07:30:00,
2013-08-27 02:31:00,69.2,68.9,29.75,SSW,204,0.0,3.0,99,0.71,,,0.76,VWS V14.01,2013-08-27 07:31:00,
2013-08-27 02:33:00,69.3,69.0,29.75,SSW,204,0.0,3.0,99,0.73,,,0.78,VWS V14.01,2013-08-27 07:33:00,
2013-08-27 02:34:00,69.3,69.0,29.75,SSW,204,0.0,3.0,99,0.74,,,0.79,VWS V14.01,2013-08-27 07:34:00,
2013-08-27 02:35:00,69.4,69.1,29.74,SSW,204,2.0,3.0,99,0.75,,,0.80,VWS V14.01,2013-08-27 07:35:00,
2013-08-27 02:36:00,69.5,69.2,29.74,SSW,204,0.0,3.0,99,0.75,,,0.80,VWS V14.01,2013-08-27 07:36:00,
2013-08-27 02:39:00,69.7,69.4,29.75,SSW,204,0.0,3.0,99,0.76,,,0.81,VWS V14.01,2013-08-27 07:39:00,
2013-08-27 02:40:00,69.7,69.4,29.75,SSW,204,0.0,3.0,99,0.77,,,0.82,VWS V14.01,2013-08-27 07:40:00,
2013-08-27 02:41:00,69.7,69.4,29.75,SSW,204,0.0,3.0,99,0.77,,,0.82,VWS V14.01,2013-08-27 07:41:00,
2013-08-27 02:44:00,69.8,69.5,29.75,SSW,204,0.0,3.0,99,0.80,,,0.85,VWS V14.01,2013-08-27 07:44:00,
2013-08-27 02:45:00,69.8,69.5,29.75,SSW,204,0.0,3.0,99,0.80,,,0.85,VWS V14.01,2013-08-27 07:45:00,
2013-08-27 02:46:00,69.8,69.5,29.75,SSW,204,0.0,3.0,99,0.81,,,0.86,VWS V14.01,2013-08-27 07:46:00,
2013-08-27 02:49:00,69.9,69.6,29.74,SSW,204,0.0,3.0,99,0.83,,,0.88,VWS V14.01,2013-08-27 07:49:00,
2013-08-27 02:50:00,69.8,69.5,29.74,SSW,204,0.0,3.0,99,0.83,,,0.88,VWS V14.01,2013-08-27 07:50:00,
2013-08-27 02:51:00,69.9,69.6,29.74,SSW,204,0.0,3.0,99,0.84,,,0.89,VWS V14.01,2013-08-27 07:51:00,
2013-08-27 02:54:00,70.0,69.7,29.74,NNW,342,6.0,6.0,99,0.36,,,0.91,VWS V14.01,2013-08-27 07:54:00,
2013-08-27 02:55:00,70.0,69.7,29.74,NNW,341,7.0,7.0,99,0.36,,,0.91,VWS V14.01,2013-08-27 07:55:00,
2013-08-27 02:56:00,70.1,69.8,29.74,NNW,336,11.0,11.0,99,0.37,,,0.92,VWS V14.01,2013-08-27 07:56:00,
2013-08-27 02:57:00,70.0,69.7,29.74,NNW,348,10.0,11.0,99,0.38,,,0.93,VWS V14.01,2013-08-27 07:57:00,
2013-08-27 03:00:00,69.9,69.6,29.75,NNW,346,6.0,13.0,99,0.39,,,0.94,VWS V14.01,2013-08-27 08:00:00,
2013-08-27 03:01:00,69.9,69.6,29.75,NW,324,7.0,13.0,99,0.40,,,0.95,VWS V14.01,2013-08-27 08:01:00,
2013-08-27 03:02:00,69.9,69.6,29.77,NW,319,0.0,13.0,99,0.41,,,0.96,VWS V14.01,2013-08-27 08:02:00,
2013-08-27 03:05:00,69.8,69.5,29.78,NW,318,0.0,13.0,99,0.44,,OVC120,0.99,VWS V14.01,2013-08-27 08:05:00,
2013-08-27 03:06:00,69.9,69.6,29.78,NW,317,0.0,13.0,99,0.45,,OVC120,1.00,VWS V14.01,2013-08-27 08:06:00,
2013-08-27 03:07:00,69.9,69.6,29.78,NW,317,0.0,13.0,99,0.47,,OVC120,1.02,VWS V14.01,2013-08-27 08:07:00,
2013-08-27 03:10:00,69.9,69.6,29.77,NW,317,0.0,13.0,99,0.50,,OVC120,1.05,VWS V14.01,2013-08-27 08:10:00,
2013-08-27 03:11:00,69.9,69.6,29.77,NW,317,0.0,13.0,99,0.51,,OVC120,1.06,VWS V14.01,2013-08-27 08:11:00,
2013-08-27 03:13:00,69.9,69.6,29.77,NNW,347,4.0,13.0,99,0.53,,OVC120,1.08,VWS V14.01,2013-08-27 08:13:00,
2013-08-27 03:15:00,69.9,69.6,29.77,NNW,347,1.0,13.0,99,0.55,,OVC120,1.10,VWS V14.01,2013-08-27 08:15:00,
2013-08-27 03:17:00,69.9,69.6,29.77,NNW,347,4.0,13.0,99,0.56,,OVC120,1.11,VWS V14.01,2013-08-27 08:17:00,
2013-08-27 03:18:00,69.9,69.6,29.76,NNW,342,3.0,13.0,99,0.57,,OVC120,1.12,VWS V14.01,2013-08-27 08:18:00,
2013-08-27 03:20:00,69.9,69.6,29.76,NNW,342,0.0,13.0,99,0.58,,OVC120,1.13,VWS V14.01,2013-08-27 08:20:00,
2013-08-27 03:21:00,69.9,69.6,29.75,NNW,342,0.0,13.0,99,0.59,,OVC120,1.14,VWS V14.01,2013-08-27 08:21:00,
2013-08-27 03:22:00,69.9,69.6,29.75,NNW,342,0.0,13.0,99,0.59,,OVC120,1.14,VWS V14.01,2013-08-27 08:22:00,
2013-08-27 03:23:00,69.9,69.6,29.75,NNW,342,0.0,0.0,99,0.43,,OVC120,1.15,VWS V14.01,2013-08-27 08:23:00,
2013-08-27 03:26:00,69.9,69.6,29.75,NNW,342,0.0,0.0,99,0.44,,OVC120,1.16,VWS V14.01,2013-08-27 08:26:00,
2013-08-27 03:27:00,69.9,69.6,29.75,NNW,342,0.0,0.0,99,0.45,,OVC120,1.17,VWS V14.01,2013-08-27 08:27:00,
2013-08-27 03:28:00,69.9,69.6,29.74,NNW,342,0.0,0.0,99,0.45,,OVC120,1.17,VWS V14.01,2013-08-27 08:28:00,
2013-08-27 03:31:00,69.9,69.6,29.74,NNW,342,0.0,0.0,99,0.46,,,1.18,VWS V14.01,2013-08-27 08:31:00,
2013-08-27 03:32:00,69.9,69.6,29.75,NNW,342,0.0,0.0,99,0.47,,,1.19,VWS V14.01,2013-08-27 08:32:00,
2013-08-27 03:34:00,69.9,69.6,29.75,NNW,342,0.0,0.0,99,0.47,,,1.19,VWS V14.01,2013-08-27 08:34:00,
2013-08-27 03:36:00,69.9,69.6,29.75,NNW,342,0.0,0.0,99,0.48,,,1.20,VWS V14.01,2013-08-27 08:36:00,
2013-08-27 03:37:00,69.9,69.6,29.75,NNW,342,0.0,0.0,99,0.48,,,1.20,VWS V14.01,2013-08-27 08:37:00,
2013-08-27 03:38:00,69.9,69.6,29.75,NNW,342,0.0,0.0,99,0.49,,,1.21,VWS V14.01,2013-08-27 08:38:00,
2013-08-27 03:39:00,69.9,69.6,29.75,NNW,342,0.0,0.0,99,0.49,,,1.21,VWS V14.01,2013-08-27 08:39:00,
2013-08-27 03:41:00,69.9,69.6,29.76,NNW,341,0.0,0.0,99,0.50,,,1.22,VWS V14.01,2013-08-27 08:41:00,
2013-08-27 03:42:00,69.9,69.6,29.76,NNW,341,1.0,1.0,99,0.50,,,1.22,VWS V14.01,2013-08-27 08:42:00,
2013-08-27 03:43:00,69.9,69.6,29.76,NNW,341,0.0,1.0,99,0.50,,,1.22,VWS V14.01,2013-08-27 08:43:00,
2013-08-27 03:44:00,69.9,69.6,29.76,NNW,341,0.0,1.0,99,0.50,,,1.22,VWS V14.01,2013-08-27 08:44:00,
2013-08-27 03:47:00,69.9,69.6,29.75,NNW,341,0.0,1.0,99,0.51,,,1.23,VWS V14.01,2013-08-27 08:47:00,
2013-08-27 03:48:00,69.9,69.6,29.75,NNW,341,0.0,1.0,99,0.52,,,1.24,VWS V14.01,2013-08-27 08:48:00,
2013-08-27 03:49:00,69.9,69.6,29.75,NNW,341,0.0,1.0,99,0.52,,,1.24,VWS V14.01,2013-08-27 08:49:00,
2013-08-27 03:52:00,70.0,69.7,29.75,NNW,341,0.0,1.0,99,0.53,,,1.25,VWS V14.01,2013-08-27 08:52:00,
2013-08-27 03:53:00,70.0,69.7,29.74,NNW,341,0.0,0.0,99,0.35,,,1.25,VWS V14.01,2013-08-27 08:53:00,
2013-08-27 03:54:00,70.0,69.7,29.74,NNW,341,0.0,0.0,99,0.36,,,1.26,VWS V14.01,2013-08-27 08:54:00,
2013-08-27 03:57:00,70.0,69.7,29.72,NNW,341,0.0,1.0,99,0.36,,,1.26,VWS V14.01,2013-08-27 08:57:00,
2013-08-27 03:58:00,70.0,69.7,29.72,NNW,341,0.0,1.0,99,0.36,,,1.26,VWS V14.01,2013-08-27 08:58:00,
2013-08-27 03:59:00,70.0,69.7,29.71,NNE,25,0.0,2.0,99,0.37,,,1.27,VWS V14.01,2013-08-27 08:59:00,
2013-08-27 04:02:00,70.0,69.7,29.72,NNE,25,0.0,2.0,99,0.38,,,1.28,VWS V14.01,2013-08-27 09:02:00,
2013-08-27 04:03:00,70.0,69.7,29.72,NNE,25,0.0,2.0,99,0.38,,,1.28,VWS V14.01,2013-08-27 09:03:00,
2013-08-27 04:04:00,70.1,69.8,29.72,NNE,25,0.0,2.0,99,0.38,,,1.28,VWS V14.01,2013-08-27 09:04:00,
2013-08-27 04:07:00,70.1,69.8,29.72,NNE,26,0.0,2.0,99,0.39,,,1.29,VWS V14.01,2013-08-27 09:07:00,
2013-08-27 04:08:00,70.1,69.8,29.72,NNE,26,0.0,2.0,99,0.39,,,1.29,VWS V14.01,2013-08-27 09:08:00,
2013-08-27 04:09:00,70.1,69.8,29.72,NNE,26,0.0,2.0,99,0.40,,,1.30,VWS V14.01,2013-08-27 09:09:00,
2013-08-27 04:12:00,70.1,69.8,29.72,NNE,26,0.0,2.0,99,0.41,,,1.31,VWS V14.01,2013-08-27 09:12:00,
2013-08-27 04:13:00,70.1,69.8,29.72,NNE,26,0.0,2.0,99,0.41,,,1.31,VWS V14.01,2013-08-27 09:13:00,
2013-08-27 04:14:00,70.1,69.8,29.72,NNE,26,0.0,2.0,99,0.41,,,1.31,VWS V14.01,2013-08-27 09:14:00,
2013-08-27 04:15:00,70.1,69.8,29.72,NNE,26,0.0,2.0,99,0.42,,,1.32,VWS V14.01,2013-08-27 09:15:00,
2013-08-27 04:18:00,70.1,69.8,29.72,NNE,26,0.0,2.0,99,0.43,,,1.33,VWS V14.01,2013-08-27 09:18:00,
2013-08-27 04:20:00,70.1,69.8,29.72,NNE,26,0.0,2.0,99,0.43,,,1.33,VWS V14.01,2013-08-27 09:20:00,
2013-08-27 04:23:00,70.1,69.8,29.73,NNE,26,0.0,0.0,99,0.19,,,1.34,VWS V14.01,2013-08-27 09:23:00,
2013-08-27 04:24:00,70.1,69.8,29.73,NNE,26,0.0,0.0,99,0.19,,,1.34,VWS V14.01,2013-08-27 09:24:00,
2013-08-27 04:25:00,70.1,69.8,29.73,NNE,26,0.0,0.0,99,0.20,,,1.35,VWS V14.01,2013-08-27 09:25:00,
2013-08-27 04:28:00,70.1,69.8,29.73,NNE,26,0.0,0.0,99,0.21,,,1.36,VWS V14.01,2013-08-27 09:28:00,
2013-08-27 04:29:00,70.1,69.8,29.73,NNE,26,0.0,0.0,99,0.21,,,1.36,VWS V14.01,2013-08-27 09:29:00,
2013-08-27 04:30:00,70.1,69.8,29.73,NNE,26,1.0,1.0,99,0.21,,,1.36,VWS V14.01,2013-08-27 09:30:00,
2013-08-27 04:31:00,70.1,69.8,29.73,NNE,26,1.0,2.0,99,0.21,,,1.36,VWS V14.01,2013-08-27 09:31:00,
2013-08-27 04:33:00,70.2,69.9,29.74,NNW,342,4.0,6.0,99,0.22,,,1.37,VWS V14.01,2013-08-27 09:33:00,
2013-08-27 04:34:00,70.2,69.9,29.74,NNW,342,4.0,6.0,99,0.22,,,1.37,VWS V14.01,2013-08-27 09:34:00,
2013-08-27 04:35:00,70.2,69.9,29.73,NNW,342,4.0,6.0,99,0.22,,,1.37,VWS V14.01,2013-08-27 09:35:00,
2013-08-27 04:36:00,70.2,69.9,29.73,NNW,342,2.0,6.0,99,0.23,,,1.38,VWS V14.01,2013-08-27 09:36:00,
2013-08-27 04:39:00,70.2,69.9,29.74,NNW,342,1.0,6.0,99,0.23,,,1.38,VWS V14.01,2013-08-27 09:39:00,
2013-08-27 04:40:00,70.2,69.9,29.74,NNW,342,3.0,6.0,99,0.24,,,1.39,VWS V14.01,2013-08-27 09:40:00,
2013-08-27 04:41:00,70.1,69.8,29.74,NNW,342,4.0,6.0,99,0.24,,,1.39,VWS V14.01,2013-08-27 09:41:00,
2013-08-27 04:44:00,70.1,69.8,29.74,NNW,342,1.0,6.0,99,0.25,,,1.40,VWS V14.01,2013-08-27 09:44:00,
2013-08-27 04:46:00,70.0,69.7,29.74,NNW,335,0.0,6.0,99,0.25,,,1.40,VWS V14.01,2013-08-27 09:46:00,
2013-08-27 04:49:00,69.8,69.5,29.74,NNW,336,1.0,6.0,99,0.26,,,1.41,VWS V14.01,2013-08-27 09:49:00,
2013-08-27 04:50:00,69.8,69.5,29.74,NNW,336,0.0,6.0,99,0.26,,,1.41,VWS V14.01,2013-08-27 09:50:00,
2013-08-27 04:51:00,69.7,69.4,29.74,NNW,335,1.0,6.0,99,0.26,,,1.41,VWS V14.01,2013-08-27 09:51:00,
2013-08-27 04:54:00,69.5,69.2,29.74,NNW,336,0.0,0.0,99,0.17,,,1.42,VWS V14.01,2013-08-27 09:54:00,
2013-08-27 04:55:00,69.5,69.2,29.74,NNW,336,0.0,0.0,99,0.17,,,1.42,VWS V14.01,2013-08-27 09:55:00,
2013-08-27 04:56:00,69.4,69.1,29.74,NNW,335,0.0,0.0,99,0.17,,,1.42,VWS V14.01,2013-08-27 09:56:00,
2013-08-27 04:59:00,69.4,69.1,29.74,NNW,336,0.0,0.0,99,0.18,,,1.43,VWS V14.01,2013-08-27 09:59:00,
2013-08-27 05:00:00,69.4,69.1,29.74,NNW,336,0.0,0.0,99,0.18,,,1.43,VWS V14.01,2013-08-27 10:00:00,
2013-08-27 05:01:00,69.3,69.0,29.74,NNW,336,0.0,0.0,99,0.18,,,1.43,VWS V14.01,2013-08-27 10:01:00,
2013-08-27 05:05:00,69.2,68.9,29.74,NNW,336,0.0,0.0,99,0.19,,,1.44,VWS V14.01,2013-08-27 10:05:00,
2013-08-27 05:06:00,69.2,68.9,29.74,NNW,335,0.0,0.0,99,0.20,,,1.45,VWS V14.01,2013-08-27 10:06:00,
2013-08-27 05:07:00,69.2,68.9,29.74,NNW,336,0.0,0.0,99,0.20,,,1.45,VWS V14.01,2013-08-27 10:07:00,
2013-08-27 05:10:00,69.1,68.8,29.74,NNW,335,0.0,0.0,99,0.20,,,1.45,VWS V14.01,2013-08-27 10:10:00,
2013-08-27 05:11:00,69.1,68.8,29.74,NNW,336,0.0,0.0,99,0.21,,,1.46,VWS V14.01,2013-08-27 10:11:00,
2013-08-27 05:12:00,69.0,68.7,29.74,NNW,336,0.0,1.0,99,0.21,,,1.46,VWS V14.01,2013-08-27 10:12:00,
2013-08-27 05:15:00,69.0,68.7,29.74,NNW,336,0.0,1.0,99,0.21,,,1.46,VWS V14.01,2013-08-27 10:15:00,
2013-08-27 05:16:00,68.9,68.6,29.74,NNW,336,0.0,1.0,99,0.22,,,1.47,VWS V14.01,2013-08-27 10:16:00,
2013-08-27 05:17:00,68.9,68.6,29.74,NNW,336,2.0,2.0,99,0.22,,,1.47,VWS V14.01,2013-08-27 10:17:00,
2013-08-27 05:20:00,68.8,68.5,29.74,NNW,336,0.0,2.0,99,0.22,,,1.47,VWS V14.01,2013-08-27 10:20:00,
2013-08-27 05:21:00,68.8,68.5,29.74,NNW,336,2.0,2.0,99,0.22,,,1.47,VWS V14.01,2013-08-27 10:21:00,
2013-08-27 05:22:00,68.8,68.5,29.74,NNW,336,0.0,4.0,99,0.23,,,1.48,VWS V14.01,2013-08-27 10:22:00,
2013-08-27 05:25:00,68.7,68.4,29.74,NNW,336,0.0,0.0,99,0.14,,,1.48,VWS V14.01,2013-08-27 10:25:00,
2013-08-27 05:26:00,68.7,68.4,29.74,NNW,336,0.0,0.0,99,0.14,,,1.48,VWS V14.01,2013-08-27 10:26:00,
2013-08-27 05:28:00,68.6,68.3,29.74,NNW,336,0.0,0.0,99,0.15,,,1.49,VWS V14.01,2013-08-27 10:28:00,
2013-08-27 05:30:00,68.5,68.2,29.74,NNW,336,1.0,3.0,99,0.15,,,1.49,VWS V14.01,2013-08-27 10:30:00,
2013-08-27 05:31:00,68.5,68.2,29.74,NNW,336,1.0,3.0,99,0.15,,,1.49,VWS V14.01,2013-08-27 10:31:00,
2013-08-27 05:33:00,68.5,68.2,29.74,NNW,336,1.0,3.0,99,0.15,,,1.49,VWS V14.01,2013-08-27 10:33:00,
2013-08-27 05:35:00,68.2,67.9,29.74,NNW,336,0.0,3.0,99,0.16,,,1.50,VWS V14.01,2013-08-27 10:35:00,
2013-08-27 05:36:00,68.2,67.9,29.74,NNW,336,0.0,3.0,99,0.16,,,1.50,VWS V14.01,2013-08-27 10:36:00,
2013-08-27 05:38:00,68.1,67.8,29.75,NNW,336,0.0,3.0,99,0.16,,,1.50,VWS V14.01,2013-08-27 10:38:00,
2013-08-27 05:40:00,68.1,67.8,29.75,NNW,336,4.0,4.0,99,0.17,,,1.51,VWS V14.01,2013-08-27 10:40:00,
2013-08-27 05:41:00,68.1,67.8,29.75,NNW,336,2.0,5.0,99,0.17,,,1.51,VWS V14.01,2013-08-27 10:41:00,
2013-08-27 05:43:00,67.9,67.6,29.75,NNW,335,0.0,5.0,99,0.17,,,1.51,VWS V14.01,2013-08-27 10:43:00,
2013-08-27 05:45:00,67.8,67.5,29.74,NNW,336,2.0,5.0,99,0.17,,,1.51,VWS V14.01,2013-08-27 10:45:00,
2013-08-27 05:46:00,67.8,67.5,29.74,NNW,336,5.0,5.0,99,0.17,,,1.51,VWS V14.01,2013-08-27 10:46:00,
2013-08-27 05:47:00,67.7,67.4,29.74,NNW,336,4.0,5.0,99,0.18,,,1.52,VWS V14.01,2013-08-27 10:47:00,
2013-08-27 05:48:00,67.5,67.2,29.75,NNW,338,5.0,5.0,99,0.18,,,1.52,VWS V14.01,2013-08-27 10:48:00,
2013-08-27 05:50:00,67.2,66.9,29.75,NNW,342,6.0,6.0,99,0.18,,,1.52,VWS V14.01,2013-08-27 10:50:00,
2013-08-27 05:51:00,67.2,66.6,29.75,North,355,5.0,6.0,98,0.18,,,1.52,VWS V14.01,2013-08-27 10:51:00,
2013-08-27 05:52:00,67.0,66.4,29.75,North,355,5.0,6.0,98,0.18,,,1.52,VWS V14.01,2013-08-27 10:52:00,
2013-08-27 05:54:00,66.8,66.2,29.75,NNW,339,4.0,6.0,98,0.10,,,1.52,VWS V14.01,2013-08-27 10:54:00,
2013-08-27 05:55:00,66.7,66.4,29.75,NNW,338,0.0,6.0,99,0.11,,,1.53,VWS V14.01,2013-08-27 10:55:00,
2013-08-27 05:56:00,66.6,66.3,29.75,NNW,338,1.0,6.0,99,0.11,,,1.53,VWS V14.01,2013-08-27 10:56:00,
2013-08-27 05:57:00,66.6,66.3,29.75,NNW,338,0.0,6.0,99,0.11,,,1.53,VWS V14.01,2013-08-27 10:57:00,
2013-08-27 05:59:00,66.6,66.0,29.75,NNW,338,0.0,6.0,98,0.11,,,1.53,VWS V14.01,2013-08-27 10:59:00,
2013-08-27 06:00:00,66.6,66.3,29.75,NNW,338,1.0,6.0,99,0.11,,,1.53,VWS V14.01,2013-08-27 11:00:00,
2013-08-27 06:01:00,66.6,66.3,29.75,NNW,338,0.0,6.0,99,0.11,,,1.53,VWS V14.01,2013-08-27 11:01:00,
2013-08-27 06:02:00,66.6,66.3,29.75,NNW,338,0.0,6.0,99,0.11,,,1.53,VWS V14.01,2013-08-27 11:02:00,
2013-08-27 06:03:00,66.5,66.2,29.75,NNW,338,2.0,6.0,99,0.12,,,1.54,VWS V14.01,2013-08-27 11:03:00,
2013-08-27 06:05:00,66.5,66.2,29.75,NNW,338,2.0,6.0,99,0.12,,,1.54,VWS V14.01,2013-08-27 11:05:00,
2013-08-27 06:07:00,66.5,66.2,29.75,NNW,338,1.0,6.0,99,0.12,,,1.54,VWS V14.01,2013-08-27 11:07:00,
2013-08-27 06:08:00,66.5,66.2,29.75,NNW,338,1.0,6.0,99,0.13,,,1.55,VWS V14.01,2013-08-27 11:08:00,
2013-08-27 06:10:00,66.5,66.2,29.75,NNW,338,2.0,6.0,99,0.13,,,1.55,VWS V14.01,2013-08-27 11:10:00,
2013-08-27 06:12:00,66.5,66.2,29.75,NNW,338,2.0,6.0,99,0.13,,,1.55,VWS V14.01,2013-08-27 11:12:00,
2013-08-27 06:14:00,66.5,66.2,29.75,NNW,338,1.0,6.0,99,0.13,,,1.55,VWS V14.01,2013-08-27 11:14:00,
2013-08-27 06:15:00,66.5,66.2,29.75,NNW,338,1.0,6.0,99,0.13,,,1.55,VWS V14.01,2013-08-27 11:15:00,
2013-08-27 06:16:00,66.5,66.2,29.75,NNW,338,0.0,6.0,99,0.13,,,1.55,VWS V14.01,2013-08-27 11:16:00,
2013-08-27 06:17:00,66.5,66.2,29.75,NNW,338,2.0,6.0,99,0.13,,,1.55,VWS V14.01,2013-08-27 11:17:00,
2013-08-27 06:19:00,66.5,66.2,29.75,NNW,338,1.0,6.0,99,0.14,,,1.56,VWS V14.01,2013-08-27 11:19:00,
2013-08-27 06:20:00,66.5,66.2,29.75,NNW,338,1.0,6.0,99,0.14,,,1.56,VWS V14.01,2013-08-27 11:20:00,
2013-08-27 06:21:00,66.5,66.2,29.75,NNW,338,2.0,6.0,99,0.14,,,1.56,VWS V14.01,2013-08-27 11:21:00,
2013-08-27 06:22:00,66.5,66.2,29.75,NNW,338,4.0,6.0,99,0.14,,,1.56,VWS V14.01,2013-08-27 11:22:00,
2013-08-27 06:23:00,66.5,66.2,29.75,NNW,338,2.0,6.0,99,0.14,,,1.56,VWS V14.01,2013-08-27 11:23:00,
2013-08-27 06:24:00,66.4,66.1,29.75,NNW,338,0.0,4.0,99,0.08,,,1.56,VWS V14.01,2013-08-27 11:24:00,
2013-08-27 06:25:00,66.4,66.1,29.75,NNW,338,3.0,4.0,99,0.08,,,1.56,VWS V14.01,2013-08-27 11:25:00,
2013-08-27 06:26:00,66.4,66.1,29.75,NNW,338,3.0,4.0,99,0.08,,,1.56,VWS V14.01,2013-08-27 11:26:00,
2013-08-27 06:28:00,66.4,66.1,29.75,NNW,338,0.0,4.0,99,0.09,,,1.57,VWS V14.01,2013-08-27 11:28:00,
2013-08-27 06:29:00,66.4,66.1,29.76,NNW,338,0.0,4.0,99,0.09,,,1.57,VWS V14.01,2013-08-27 11:29:00,
2013-08-27 06:31:00,66.3,66.0,29.76,NNW,338,0.0,4.0,99,0.09,,,1.57,VWS V14.01,2013-08-27 11:31:00,
2013-08-27 06:33:00,66.3,66.0,29.76,NNW,338,0.0,4.0,99,0.09,,,1.57,VWS V14.01,2013-08-27 11:33:00,
2013-08-27 06:34:00,66.3,66.0,29.76,NNW,338,0.0,4.0,99,0.09,,,1.57,VWS V14.01,2013-08-27 11:34:00,
2013-08-27 06:36:00,66.3,66.0,29.76,NNW,338,0.0,4.0,99,0.09,,,1.57,VWS V14.01,2013-08-27 11:36:00,
2013-08-27 06:38:00,66.3,66.0,29.76,NNW,338,0.0,4.0,99,0.09,,,1.57,VWS V14.01,2013-08-27 11:38:00,
2013-08-27 06:39:00,66.3,66.0,29.76,NNW,338,0.0,4.0,99,0.10,,,1.58,VWS V14.01,2013-08-27 11:39:00,
2013-08-27 06:40:00,66.3,66.0,29.76,NNW,338,0.0,4.0,99,0.10,,,1.58,VWS V14.01,2013-08-27 11:40:00,
2013-08-27 06:41:00,66.3,66.0,29.76,NNW,338,0.0,4.0,99,0.10,,,1.58,VWS V14.01,2013-08-27 11:41:00,
2013-08-27 06:42:00,66.3,66.0,29.76,NNW,338,0.0,4.0,99,0.10,,,1.58,VWS V14.01,2013-08-27 11:42:00,
2013-08-27 06:43:00,66.3,66.0,29.76,NNW,338,0.0,4.0,99,0.10,,,1.58,VWS V14.01,2013-08-27 11:43:00,
2013-08-27 06:44:00,66.4,66.1,29.76,NNW,338,0.0,4.0,99,0.10,,,1.58,VWS V14.01,2013-08-27 11:44:00,
2013-08-27 06:45:00,66.4,66.1,29.76,NNW,338,0.0,4.0,99,0.10,,,1.58,VWS V14.01,2013-08-27 11:45:00,
2013-08-27 06:46:00,66.4,66.1,29.76,NNW,338,2.0,4.0,99,0.10,,,1.58,VWS V14.01,2013-08-27 11:46:00,
2013-08-27 06:47:00,66.4,66.1,29.76,NNW,338,1.0,4.0,99,0.10,,,1.58,VWS V14.01,2013-08-27 11:47:00,
2013-08-27 06:48:00,66.4,66.1,29.76,NNW,338,0.0,4.0,99,0.10,,,1.58,VWS V14.01,2013-08-27 11:48:00,
2013-08-27 06:50:00,66.4,66.1,29.76,NNW,338,0.0,4.0,99,0.11,,,1.59,VWS V14.01,2013-08-27 11:50:00,
2013-08-27 06:51:00,66.4,66.1,29.76,NNW,338,0.0,4.0,99,0.11,,,1.59,VWS V14.01,2013-08-27 11:51:00,
2013-08-27 06:53:00,66.5,66.2,29.76,NNW,338,0.0,4.0,99,0.11,,,1.59,VWS V14.01,2013-08-27 11:53:00,
2013-08-27 06:55:00,66.5,66.2,29.76,NNW,338,0.0,0.0,99,0.07,,,1.59,VWS V14.01,2013-08-27 11:55:00,
2013-08-27 06:56:00,66.5,66.2,29.76,NNW,338,0.0,0.0,99,0.07,,,1.59,VWS V14.01,2013-08-27 11:56:00,
2013-08-27 06:58:00,66.5,66.2,29.76,NNW,338,0.0,0.0,99,0.07,,,1.59,VWS V14.01,2013-08-27 11:58:00,
2013-08-27 07:00:00,66.6,66.3,29.76,NNW,338,0.0,0.0,99,0.07,,,1.59,VWS V14.01,2013-08-27 12:00:00,
2013-08-27 07:02:00,66.6,66.3,29.76,NNW,338,0.0,1.0,99,0.08,,,1.60,VWS V14.01,2013-08-27 12:02:00,
2013-08-27 07:03:00,66.7,66.4,29.76,NNW,338,0.0,2.0,99,0.08,,,1.60,VWS V14.01,2013-08-27 12:03:00,
2013-08-27 07:05:00,66.7,66.4,29.77,NNW,338,0.0,2.0,99,0.08,,,1.60,VWS V14.01,2013-08-27 12:05:00,
2013-08-27 07:06:00,66.7,66.4,29.77,NNW,338,0.0,2.0,99,0.08,,,1.60,VWS V14.01,2013-08-27 12:06:00,
2013-08-27 07:07:00,66.7,66.4,29.77,NNW,338,0.0,2.0,99,0.08,,,1.60,VWS V14.01,2013-08-27 12:07:00,
2013-08-27 07:09:00,66.7,66.4,29.77,NNW,338,0.0,2.0,99,0.08,,,1.60,VWS V14.01,2013-08-27 12:09:00,
2013-08-27 07:10:00,66.7,66.4,29.77,NNW,338,0.0,2.0,99,0.08,,,1.60,VWS V14.01,2013-08-27 12:10:00,
2013-08-27 07:11:00,66.7,66.4,29.77,NNW,338,0.0,2.0,99,0.08,,,1.60,VWS V14.01,2013-08-27 12:11:00,
2013-08-27 07:12:00,66.7,66.4,29.77,NNW,338,0.0,2.0,99,0.08,,,1.60,VWS V14.01,2013-08-27 12:12:00,
2013-08-27 07:14:00,66.7,66.4,29.77,NNW,338,0.0,2.0,99,0.08,,,1.60,VWS V14.01,2013-08-27 12:14:00,
2013-08-27 07:15:00,66.8,66.5,29.77,NNW,338,1.0,2.0,99,0.09,,,1.61,VWS V14.01,2013-08-27 12:15:00,
2013-08-27 07:16:00,66.8,66.5,29.77,NNW,338,0.0,2.0,99,0.09,,,1.61,VWS V14.01,2013-08-27 12:16:00,
2013-08-27 07:17:00,66.8,66.5,29.77,NNW,338,0.0,2.0,99,0.09,,,1.61,VWS V14.01,2013-08-27 12:17:00,
2013-08-27 07:19:00,66.9,66.6,29.76,NNW,338,0.0,2.0,99,0.09,,,1.61,VWS V14.01,2013-08-27 12:19:00,
2013-08-27 07:20:00,66.9,66.6,29.76,NNW,338,0.0,2.0,99,0.09,,,1.61,VWS V14.01,2013-08-27 12:20:00,
2013-08-27 07:21:00,66.9,66.6,29.76,NNW,338,0.0,2.0,99,0.09,,,1.61,VWS V14.01,2013-08-27 12:21:00,
2013-08-27 07:22:00,66.9,66.6,29.76,NNW,338,0.0,2.0,99,0.09,,,1.61,VWS V14.01,2013-08-27 12:22:00,
2013-08-27 07:25:00,66.9,66.6,29.76,NNW,338,0.0,0.0,99,0.05,,,1.61,VWS V14.01,2013-08-27 12:25:00,
2013-08-27 07:26:00,66.9,66.6,29.76,NNW,338,0.0,0.0,99,0.05,,,1.61,VWS V14.01,2013-08-27 12:26:00,
2013-08-27 07:27:00,67.0,66.7,29.77,NNW,338,0.0,0.0,99,0.05,,,1.61,VWS V14.01,2013-08-27 12:27:00,
2013-08-27 07:30:00,67.0,66.7,29.77,NNW,338,0.0,0.0,99,0.05,,,1.61,VWS V14.01,2013-08-27 12:30:00,
2013-08-27 07:31:00,67.0,66.7,29.77,NNW,338,0.0,0.0,99,0.05,,,1.61,VWS V14.01,2013-08-27 12:31:00,
2013-08-27 07:32:00,67.1,66.8,29.77,NNW,338,0.0,0.0,99,0.05,,,1.61,VWS V14.01,2013-08-27 12:32:00,
2013-08-27 07:35:00,67.1,66.8,29.76,NNW,338,0.0,0.0,99,0.06,,,1.62,VWS V14.01,2013-08-27 12:35:00,
2013-08-27 07:36:00,67.1,66.8,29.76,NNW,338,0.0,0.0,99,0.06,,,1.62,VWS V14.01,2013-08-27 12:36:00,
2013-08-27 07:37:00,67.1,66.8,29.77,NNW,338,0.0,0.0,99,0.06,,,1.62,VWS V14.01,2013-08-27 12:37:00,
2013-08-27 07:41:00,67.2,66.9,29.77,NNW,338,0.0,0.0,99,0.06,,,1.62,VWS V14.01,2013-08-27 12:41:00,
2013-08-27 07:42:00,67.2,66.9,29.77,NNW,338,0.0,0.0,99,0.06,,,1.62,VWS V14.01,2013-08-27 12:42:00,
2013-08-27 07:43:00,67.2,66.9,29.77,NNW,338,0.0,0.0,99,0.06,,,1.62,VWS V14.01,2013-08-27 12:43:00,
2013-08-27 07:46:00,67.3,67.0,29.77,NNW,338,0.0,0.0,99,0.06,,,1.62,VWS V14.01,2013-08-27 12:46:00,
2013-08-27 07:47:00,67.3,67.0,29.77,NNW,338,0.0,0.0,99,0.06,,,1.62,VWS V14.01,2013-08-27 12:47:00,
2013-08-27 07:51:00,67.4,67.1,29.77,NNW,338,0.0,0.0,99,0.07,,,1.63,VWS V14.01,2013-08-27 12:51:00,
2013-08-27 07:52:00,67.4,67.1,29.77,NNW,338,0.0,0.0,99,0.07,,,1.63,VWS V14.01,2013-08-27 12:52:00,
2013-08-27 07:54:00,67.5,67.2,29.77,NNW,338,0.0,0.0,99,0.04,,,1.63,VWS V14.01,2013-08-27 12:54:00,
2013-08-27 07:56:00,67.5,67.2,29.77,NNW,338,0.0,0.0,99,0.04,,,1.63,VWS V14.01,2013-08-27 12:56:00,
2013-08-27 07:57:00,67.5,67.2,29.77,NNW,338,0.0,0.0,99,0.04,,,1.63,VWS V14.01,2013-08-27 12:57:00,
2013-08-27 07:59:00,67.5,67.2,29.77,NNW,338,0.0,0.0,99,0.04,,,1.63,VWS V14.01,2013-08-27 12:59:00,
2013-08-27 08:01:00,67.6,67.3,29.77,NNW,338,0.0,0.0,99,0.04,,,1.63,VWS V14.01,2013-08-27 13:01:00,
2013-08-27 08:02:00,67.7,67.4,29.77,NNW,338,0.0,0.0,99,0.04,,,1.63,VWS V14.01,2013-08-27 13:02:00,
2013-08-27 08:03:00,67.7,67.4,29.77,NNW,338,0.0,0.0,99,0.04,,,1.63,VWS V14.01,2013-08-27 13:03:00,
2013-08-27 08:04:00,67.8,67.5,29.77,NNW,338,0.0,0.0,99,0.04,,,1.63,VWS V14.01,2013-08-27 13:04:00,
2013-08-27 08:06:00,67.8,67.5,29.77,NNW,338,0.0,1.0,99,0.04,,,1.63,VWS V14.01,2013-08-27 13:06:00,
2013-08-27 08:07:00,67.9,67.6,29.77,NNW,338,1.0,2.0,99,0.04,,,1.63,VWS V14.01,2013-08-27 13:07:00,
2013-08-27 08:08:00,67.9,67.6,29.77,NNW,338,0.0,2.0,99,0.04,,,1.63,VWS V14.01,2013-08-27 13:08:00,
2013-08-27 08:09:00,67.9,67.6,29.77,NNW,338,0.0,2.0,99,0.04,,,1.63,VWS V14.01,2013-08-27 13:09:00,
2013-08-27 08:11:00,67.9,67.6,29.77,NNW,338,0.0,2.0,99,0.04,,,1.63,VWS V14.01,2013-08-27 13:11:00,
2013-08-27 08:13:00,67.9,67.6,29.77,NNW,338,0.0,2.0,99,0.04,,,1.63,VWS V14.01,2013-08-27 13:13:00,
2013-08-27 08:14:00,68.0,67.7,29.77,NNW,338,0.0,2.0,99,0.04,,,1.63,VWS V14.01,2013-08-27 13:14:00,
2013-08-27 08:16:00,68.0,67.7,29.78,NNW,338,0.0,2.0,99,0.05,,,1.64,VWS V14.01,2013-08-27 13:16:00,
2013-08-27 08:18:00,68.1,67.8,29.78,NNW,338,0.0,2.0,99,0.05,,,1.64,VWS V14.01,2013-08-27 13:18:00,
2013-08-27 08:19:00,68.1,67.8,29.78,NNW,338,0.0,2.0,99,0.05,,,1.64,VWS V14.01,2013-08-27 13:19:00,
2013-08-27 08:20:00,68.2,67.9,29.78,NNW,338,2.0,3.0,99,0.05,,,1.64,VWS V14.01,2013-08-27 13:20:00,
2013-08-27 08:22:00,68.2,67.9,29.78,NNW,338,0.0,3.0,99,0.05,,,1.64,VWS V14.01,2013-08-27 13:22:00,
2013-08-27 08:23:00,68.2,67.9,29.78,NNW,338,2.0,3.0,99,0.05,,,1.64,VWS V14.01,2013-08-27 13:23:00,
2013-08-27 08:24:00,68.2,67.9,29.78,NNW,338,0.0,2.0,99,0.03,,,1.64,VWS V14.01,2013-08-27 13:24:00,
2013-08-27 08:25:00,68.2,67.9,29.78,NNW,338,0.0,2.0,99,0.03,,,1.64,VWS V14.01,2013-08-27 13:25:00,
2013-08-27 08:27:00,68.3,68.0,29.78,NNW,338,2.0,2.0,99,0.03,,,1.64,VWS V14.01,2013-08-27 13:27:00,
2013-08-27 08:28:00,68.3,68.0,29.78,NNW,338,0.0,2.0,99,0.03,,,1.64,VWS V14.01,2013-08-27 13:28:00,
2013-08-27 08:29:00,68.3,68.0,29.78,NNW,338,0.0,2.0,99,0.03,,,1.64,VWS V14.01,2013-08-27 13:29:00,
2013-08-27 08:30:00,68.3,68.0,29.78,NNW,338,0.0,2.0,99,0.03,,,1.64,VWS V14.01,2013-08-27 13:30:00,
2013-08-27 08:32:00,68.3,68.0,29.78,NNW,338,2.0,2.0,99,0.03,,,1.64,VWS V14.01,2013-08-27 13:32:00,
2013-08-27 08:33:00,68.4,68.1,29.78,NNW,338,1.0,4.0,99,0.03,,,1.64,VWS V14.01,2013-08-27 13:33:00,
2013-08-27 08:34:00,68.4,68.1,29.78,NNW,338,2.0,4.0,99,0.03,,,1.64,VWS V14.01,2013-08-27 13:34:00,
2013-08-27 08:36:00,68.4,68.1,29.78,NNW,338,2.0,4.0,99,0.03,,,1.64,VWS V14.01,2013-08-27 13:36:00,
2013-08-27 08:37:00,68.4,68.1,29.78,NNW,338,1.0,4.0,99,0.03,,,1.64,VWS V14.01,2013-08-27 13:37:00,
2013-08-27 08:38:00,68.5,68.2,29.78,NNW,338,2.0,4.0,99,0.03,,,1.64,VWS V14.01,2013-08-27 13:38:00,
2013-08-27 08:39:00,68.5,68.2,29.78,NNW,338,1.0,4.0,99,0.03,,,1.64,VWS V14.01,2013-08-27 13:39:00,
2013-08-27 08:41:00,68.5,68.2,29.78,NNW,338,0.0,4.0,99,0.04,,,1.65,VWS V14.01,2013-08-27 13:41:00,
2013-08-27 08:42:00,68.5,68.2,29.78,NNW,338,0.0,4.0,99,0.04,,,1.65,VWS V14.01,2013-08-27 13:42:00,
2013-08-27 08:43:00,68.5,68.2,29.78,NNW,338,0.0,4.0,99,0.04,,,1.65,VWS V14.01,2013-08-27 13:43:00,
2013-08-27 08:44:00,68.6,68.3,29.78,NNW,338,0.0,4.0,99,0.04,,,1.65,VWS V14.01,2013-08-27 13:44:00,
2013-08-27 08:46:00,68.6,68.3,29.78,NNW,338,0.0,4.0,99,0.04,,,1.65,VWS V14.01,2013-08-27 13:46:00,
2013-08-27 08:47:00,68.6,68.3,29.78,NNW,338,2.0,4.0,99,0.04,,,1.65,VWS V14.01,2013-08-27 13:47:00,
2013-08-27 08:48:00,68.6,68.3,29.78,NNW,338,2.0,4.0,99,0.04,,,1.65,VWS V14.01,2013-08-27 13:48:00,
2013-08-27 08:50:00,68.8,68.5,29.78,NNW,338,1.0,5.0,99,0.04,,,1.65,VWS V14.01,2013-08-27 13:50:00,
2013-08-27 08:51:00,68.8,68.5,29.78,NNW,338,4.0,5.0,99,0.04,,,1.65,VWS V14.01,2013-08-27 13:51:00,
2013-08-27 08:52:00,68.8,68.5,29.78,NNW,338,0.0,5.0,99,0.04,,,1.65,VWS V14.01,2013-08-27 13:52:00,
2013-08-27 08:53:00,68.8,68.5,29.78,NNW,338,0.0,5.0,99,0.04,,,1.65,VWS V14.01,2013-08-27 13:53:00,
2013-08-27 08:55:00,68.8,68.5,29.78,NNW,338,0.0,2.0,99,0.02,,,1.65,VWS V14.01,2013-08-27 13:55:00,
2013-08-27 08:56:00,68.9,68.6,29.78,NNW,338,2.0,5.0,99,0.02,,,1.65,VWS V14.01,2013-08-27 13:56:00,
2013-08-27 08:58:00,68.9,68.6,29.78,NNW,336,4.0,5.0,99,0.02,,,1.65,VWS V14.01,2013-08-27 13:58:00,
2013-08-27 09:00:00,68.7,68.4,29.78,NNW,340,5.0,5.0,99,0.02,,,1.65,VWS V14.01,2013-08-27 14:00:00,
2013-08-27 09:01:00,68.7,68.4,29.78,NNW,337,2.0,5.0,99,0.02,,,1.65,VWS V14.01,2013-08-27 14:01:00,
2013-08-27 09:03:00,68.6,68.3,29.78,NNW,344,4.0,5.0,99,0.02,,,1.65,VWS V14.01,2013-08-27 14:03:00,
2013-08-27 09:04:00,68.6,68.3,29.78,NNW,344,1.0,5.0,99,0.02,,,1.65,VWS V14.01,2013-08-27 14:04:00,
2013-08-27 09:05:00,68.5,68.2,29.78,NNW,344,2.0,5.0,99,0.02,,OVC006,1.65,VWS V14.01,2013-08-27 14:05:00,
2013-08-27 09:06:00,68.5,68.2,29.78,NNW,344,3.0,5.0,99,0.02,,OVC006,1.65,VWS V14.01,2013-08-27 14:06:00,
2013-08-27 09:08:00,68.5,68.2,29.78,NNW,344,1.0,5.0,99,0.02,,OVC006,1.65,VWS V14.01,2013-08-27 14:08:00,
2013-08-27 09:09:00,68.5,68.2,29.78,NNW,344,2.0,5.0,99,0.02,,OVC006,1.65,VWS V14.01,2013-08-27 14:09:00,
2013-08-27 09:11:00,68.4,68.1,29.78,NNW,344,4.0,5.0,99,0.02,,OVC006,1.65,VWS V14.01,2013-08-27 14:11:00,
2013-08-27 09:12:00,68.4,68.1,29.78,NNW,344,0.0,5.0,99,0.02,,OVC006,1.65,VWS V14.01,2013-08-27 14:12:00,
2013-08-27 09:13:00,68.4,68.1,29.78,NNW,344,2.0,5.0,99,0.02,,OVC006,1.65,VWS V14.01,2013-08-27 14:13:00,
2013-08-27 09:14:00,68.3,68.0,29.78,NNW,344,2.0,5.0,99,0.02,,OVC006,1.65,VWS V14.01,2013-08-27 14:14:00,
2013-08-27 09:17:00,68.2,67.9,29.78,NNW,331,4.0,6.0,99,0.02,,OVC006,1.65,VWS V14.01,2013-08-27 14:17:00,
2013-08-27 09:18:00,68.1,67.8,29.78,NNW,339,2.0,6.0,99,0.02,,OVC006,1.65,VWS V14.01,2013-08-27 14:18:00,
2013-08-27 09:19:00,68.1,67.8,29.78,NNW,338,4.0,6.0,99,0.02,,OVC006,1.65,VWS V14.01,2013-08-27 14:19:00,
2013-08-27 09:22:00,68.1,67.8,29.78,NNW,337,2.0,6.0,99,0.02,,OVC006,1.65,VWS V14.01,2013-08-27 14:22:00,
2013-08-27 09:23:00,68.0,67.7,29.78,NNW,329,6.0,6.0,99,0.02,,OVC006,1.65,VWS V14.01,2013-08-27 14:23:00,
2013-08-27 09:24:00,67.9,67.6,29.78,NNW,343,3.0,6.0,99,0.01,,OVC006,1.65,VWS V14.01,2013-08-27 14:24:00,
2013-08-27 09:27:00,67.8,67.5,29.78,NNW,338,1.0,6.0,99,0.01,,OVC006,1.65,VWS V14.01,2013-08-27 14:27:00,
2013-08-27 09:28:00,67.7,67.4,29.78,NNW,338,1.0,6.0,99,0.01,,OVC006,1.65,VWS V14.01,2013-08-27 14:28:00,
2013-08-27 09:29:00,67.7,67.4,29.78,NNW,338,0.0,6.0,99,0.01,,OVC006,1.65,VWS V14.01,2013-08-27 14:29:00,
2013-08-27 09:32:00,67.7,67.4,29.78,NNW,335,4.0,6.0,99,0.01,,OVC006,1.65,VWS V14.01,2013-08-27 14:32:00,
2013-08-27 09:33:00,67.7,67.4,29.78,NNW,335,2.0,6.0,99,0.01,,OVC006,1.65,VWS V14.01,2013-08-27 14:33:00,
2013-08-27 09:34:00,67.7,67.4,29.78,NNW,335,1.0,6.0,99,0.01,,OVC006,1.65,VWS V14.01,2013-08-27 14:34:00,
2013-08-27 09:35:00,67.7,67.4,29.78,NNW,336,3.0,6.0,99,0.01,,OVC006,1.65,VWS V14.01,2013-08-27 14:35:00,
2013-08-27 09:37:00,67.7,67.4,29.78,NNW,344,4.0,6.0,99,0.01,,OVC006,1.65,VWS V14.01,2013-08-27 14:37:00,
2013-08-27 09:38:00,67.8,67.5,29.78,NNW,339,5.0,6.0,99,0.01,,OVC006,1.65,VWS V14.01,2013-08-27 14:38:00,
2013-08-27 09:40:00,67.8,67.5,29.78,NNW,339,0.0,6.0,99,0.01,,OVC006,1.65,VWS V14.01,2013-08-27 14:40:00,
2013-08-27 09:41:00,67.8,67.5,29.78,NNW,339,1.0,6.0,99,0.01,,OVC006,1.65,VWS V14.01,2013-08-27 14:41:00,
2013-08-27 09:43:00,67.9,67.6,29.79,NNW,339,1.0,6.0,99,0.01,,OVC006,1.65,VWS V14.01,2013-08-27 14:43:00,
2013-08-27 09:44:00,67.9,67.6,29.79,NNW,334,4.0,6.0,99,0.01,,OVC006,1.65,VWS V14.01,2013-08-27 14:44:00,
2013-08-27 09:45:00,67.9,67.6,29.79,NW,325,4.0,6.0,99,0.01,,OVC006,1.65,VWS V14.01,2013-08-27 14:45:00,
2013-08-27 09:46:00,67.9,67.6,29.79,NNW,328,4.0,6.0,99,0.01,,OVC006,1.65,VWS V14.01,2013-08-27 14:46:00,
2013-08-27 09:48:00,68.0,67.7,29.79,NNW,344,5.0,7.0,99,0.01,,OVC006,1.65,VWS V14.01,2013-08-27 14:48:00,
2013-08-27 09:49:00,68.0,67.7,29.79,NNW,338,5.0,7.0,99,0.01,,OVC006,1.65,VWS V14.01,2013-08-27 14:49:00,
2013-08-27 09:50:00,67.9,67.6,29.79,NNW,338,4.0,7.0,99,0.01,,OVC006,1.65,VWS V14.01,2013-08-27 14:50:00,
2013-08-27 09:51:00,67.9,67.6,29.79,NNW,338,2.0,7.0,99,0.01,,OVC006,1.65,VWS V14.01,2013-08-27 14:51:00,
2013-08-27 09:53:00,67.9,67.6,29.79,NNW,338,0.0,1.0,99,0.00,,OVC006,1.65,VWS V14.01,2013-08-27 14:53:00,
2013-08-27 09:54:00,68.0,67.7,29.79,NNW,338,2.0,3.0,99,0.00,,OVC006,1.65,VWS V14.01,2013-08-27 14:54:00,
2013-08-27 09:56:00,68.0,67.7,29.79,NNW,330,6.0,7.0,99,0.00,,OVC006,1.65,VWS V14.01,2013-08-27 14:56:00,
2013-08-27 09:58:00,68.1,67.8,29.79,NNW,335,4.0,7.0,99,0.00,,OVC006,1.65,VWS V14.01,2013-08-27 14:58:00,
2013-08-27 09:59:00,68.1,67.8,29.79,NNW,335,2.0,7.0,99,0.00,,BKN006,1.65,VWS V14.01,2013-08-27 14:59:00,
2013-08-27 10:01:00,68.2,67.9,29.79,NNW,334,4.0,7.0,99,0.00,,BKN006,1.65,VWS V14.01,2013-08-27 15:01:00,
2013-08-27 10:03:00,68.3,68.0,29.79,NNW,334,5.0,7.0,99,0.00,,BKN006,1.65,VWS V14.01,2013-08-27 15:03:00,
2013-08-27 10:04:00,68.3,68.0,29.79,NNE,28,3.0,7.0,99,0.00,,BKN006,1.65,VWS V14.01,2013-08-27 15:04:00,
2013-08-27 10:05:00,68.3,68.0,29.79,NE,34,0.0,7.0,99,0.00,,BKN006,1.65,VWS V14.01,2013-08-27 15:05:00,
2013-08-27 10:06:00,68.3,68.0,29.79,NE,34,0.0,7.0,99,0.00,,BKN006,1.65,VWS V14.01,2013-08-27 15:06:00,
2013-08-27 10:08:00,68.3,68.0,29.79,NNW,335,5.0,7.0,99,0.00,,BKN006,1.65,VWS V14.01,2013-08-27 15:08:00,
2013-08-27 10:09:00,68.3,68.0,29.80,North,5,0.0,7.0,99,0.00,,BKN006,1.65,VWS V14.01,2013-08-27 15:09:00,
2013-08-27 10:10:00,68.4,68.1,29.80,North,5,0.0,7.0,99,0.00,,BKN006,1.65,VWS V14.01,2013-08-27 15:10:00,
2013-08-27 10:11:00,68.4,68.1,29.80,North,9,3.0,7.0,99,0.00,,BKN006,1.65,VWS V14.01,2013-08-27 15:11:00,
2013-08-27 10:14:00,68.5,68.2,29.80,NNW,336,4.0,7.0,99,0.00,,BKN006,1.65,VWS V14.01,2013-08-27 15:14:00,
2013-08-27 10:15:00,68.5,68.2,29.79,NNW,333,1.0,7.0,99,0.00,,BKN006,1.65,VWS V14.01,2013-08-27 15:15:00,
2013-08-27 10:17:00,68.6,68.3,29.79,NNW,333,0.0,7.0,99,0.00,,BKN006,1.65,VWS V14.01,2013-08-27 15:17:00,
2013-08-27 10:19:00,68.7,68.4,29.80,NNW,342,5.0,7.0,99,0.00,,BKN006,1.65,VWS V14.01,2013-08-27 15:19:00,
2013-08-27 10:20:00,68.7,68.4,29.80,NNW,342,2.0,7.0,99,0.00,,BKN006,1.65,VWS V14.01,2013-08-27 15:20:00,
2013-08-27 10:22:00,68.7,68.4,29.80,NNW,331,4.0,7.0,99,0.00,,BKN006,1.65,VWS V14.01,2013-08-27 15:22:00,
2013-08-27 10:24:00,68.7,68.4,29.80,NNW,333,3.0,5.0,99,0.00,,BKN006,1.65,VWS V14.01,2013-08-27 15:24:00,
2013-08-27 10:25:00,68.8,68.5,29.80,NNW,333,0.0,5.0,99,0.00,,BKN006,1.65,VWS V14.01,2013-08-27 15:25:00,
2013-08-27 10:26:00,68.8,68.5,29.79,NNW,333,0.0,5.0,99,0.00,,BKN006,1.65,VWS V14.01,2013-08-27 15:26:00,
2013-08-27 10:27:00,69.0,68.7,29.79,NNW,333,2.0,5.0,99,0.00,,BKN006,1.65,VWS V14.01,2013-08-27 15:27:00,
2013-08-27 10:29:00,69.0,68.7,29.79,North,11,0.0,5.0,99,0.00,,BKN006,1.65,VWS V14.01,2013-08-27 15:29:00,
2013-08-27 10:30:00,69.1,68.8,29.79,North,11,0.0,5.0,99,0.00,,BKN006,1.65,VWS V14.01,2013-08-27 15:30:00,
2013-08-27 10:31:00,69.1,68.8,29.79,NNE,13,1.0,5.0,99,0.00,,BKN006,1.65,VWS V14.01,2013-08-27 15:31:00,
2013-08-27 10:32:00,69.0,68.7,29.79,NNE,22,2.0,5.0,99,0.00,,BKN006,1.65,VWS V14.01,2013-08-27 15:32:00,
2013-08-27 10:33:00,69.0,68.7,29.79,NNE,22,2.0,5.0,99,0.00,,BKN006,1.65,VWS V14.01,2013-08-27 15:33:00,
2013-08-27 10:34:00,69.1,68.8,29.79,NNE,22,0.0,5.0,99,0.00,,BKN006,1.65,VWS V14.01,2013-08-27 15:34:00,
2013-08-27 10:35:00,69.1,68.8,29.79,NNE,22,0.0,5.0,99,0.00,,BKN006,1.65,VWS V14.01,2013-08-27 15:35:00,
2013-08-27 10:36:00,69.1,68.8,29.79,NNE,17,2.0,5.0,99,0.00,,BKN006,1.65,VWS V14.01,2013-08-27 15:36:00,
2013-08-27 10:37:00,69.2,68.9,29.79,NNE,17,0.0,5.0,99,0.00,,BKN006,1.65,VWS V14.01,2013-08-27 15:37:00,
2013-08-27 10:38:00,69.2,68.9,29.79,NW,317,5.0,5.0,99,0.00,,BKN006,1.65,VWS V14.01,2013-08-27 15:38:00,
2013-08-27 10:39:00,69.3,69.0,29.79,NW,317,5.0,5.0,99,0.00,,BKN006,1.65,VWS V14.01,2013-08-27 15:39:00,
2013-08-27 10:40:00,69.5,69.2,29.79,NNW,334,0.0,5.0,99,0.00,,BKN006,1.65,VWS V14.01,2013-08-27 15:40:00,
2013-08-27 10:41:00,69.5,69.2,29.79,NNW,334,0.0,5.0,99,0.00,,BKN006,1.65,VWS V14.01,2013-08-27 15:41:00,
2013-08-27 10:42:00,69.6,69.3,29.79,NNW,334,0.0,5.0,99,0.00,,BKN006,1.65,VWS V14.01,2013-08-27 15:42:00,
2013-08-27 10:43:00,69.6,69.3,29.79,North,360,0.0,5.0,99,0.00,,BKN006,1.65,VWS V14.01,2013-08-27 15:43:00,
2013-08-27 10:44:00,69.7,69.4,29.79,North,5,2.0,5.0,99,0.00,,BKN006,1.65,VWS V14.01,2013-08-27 15:44:00,
2013-08-27 10:46:00,69.7,69.4,29.79,NNE,20,0.0,5.0,99,0.00,,BKN006,1.65,VWS V14.01,2013-08-27 15:46:00,
2013-08-27 10:47:00,69.8,69.5,29.80,NNE,20,0.0,5.0,99,0.00,,BKN006,1.65,VWS V14.01,2013-08-27 15:47:00,
2013-08-27 10:48:00,69.9,69.6,29.80,NNE,20,0.0,5.0,99,0.00,,BKN006,1.65,VWS V14.01,2013-08-27 15:48:00,
2013-08-27 10:49:00,69.9,69.6,29.80,NNE,20,0.0,5.0,99,0.00,,BKN006,1.65,VWS V14.01,2013-08-27 15:49:00,
2013-08-27 10:51:00,70.0,69.7,29.80,NNE,20,0.0,5.0,99,0.00,,BKN006,1.65,VWS V14.01,2013-08-27 15:51:00,
2013-08-27 10:52:00,70.2,69.9,29.80,NNE,20,2.0,5.0,99,0.00,,BKN006,1.65,VWS V14.01,2013-08-27 15:52:00,
2013-08-27 10:53:00,70.2,69.9,29.79,NNE,20,0.0,1.0,99,0.00,,BKN006,1.65,VWS V14.01,2013-08-27 15:53:00,
2013-08-27 10:55:00,70.3,70.0,29.79,NNE,20,0.0,1.0,99,0.00,,BKN006,1.65,VWS V14.01,2013-08-27 15:55:00,
2013-08-27 10:56:00,70.5,70.2,29.79,NNW,343,1.0,4.0,99,0.00,,BKN006,1.65,VWS V14.01,2013-08-27 15:56:00,
2013-08-27 10:57:00,70.6,70.3,29.79,NNW,343,2.0,4.0,99,0.00,,BKN006,1.65,VWS V14.01,2013-08-27 15:57:00,
2013-08-27 10:58:00,70.6,70.6,29.79,NNW,338,5.0,7.0,100,0.00,,BKN006,1.65,VWS V14.01,2013-08-27 15:58:00,
2013-08-27 11:00:00,70.7,70.4,29.79,North,349,0.0,7.0,99,0.00,,BKN006,1.65,VWS V14.01,2013-08-27 16:00:00,
2013-08-27 11:01:00,70.8,70.5,29.79,North,351,5.0,7.0,99,0.00,,SCT010,1.65,VWS V14.01,2013-08-27 16:01:00,
2013-08-27 11:02:00,70.8,70.5,29.79,NNW,342,5.0,7.0,99,0.00,,SCT010,1.65,VWS V14.01,2013-08-27 16:02:00,
2013-08-27 11:03:00,70.9,70.6,29.79,NNW,327,0.0,7.0,99,0.00,,SCT010,1.65,VWS V14.01,2013-08-27 16:03:00,
2013-08-27 11:05:00,70.9,70.6,29.79,NNW,337,3.0,7.0,99,0.00,,SCT010,1.65,VWS V14.01,2013-08-27 16:05:00,
2013-08-27 11:07:00,70.8,70.5,29.80,NNW,337,0.0,7.0,99,0.00,,SCT010,1.65,VWS V14.01,2013-08-27 16:07:00,
2013-08-27 11:08:00,70.8,70.5,29.80,NNE,19,1.0,7.0,99,0.00,,SCT010,1.65,VWS V14.01,2013-08-27 16:08:00,
2013-08-27 11:10:00,70.9,70.6,29.80,NNW,342,3.0,7.0,99,0.00,,SCT010,1.65,VWS V14.01,2013-08-27 16:10:00,
2013-08-27 11:11:00,70.9,70.6,29.80,NNW,342,2.0,7.0,99,0.00,,SCT010,1.65,VWS V14.01,2013-08-27 16:11:00,
2013-08-27 11:12:00,70.9,70.6,29.80,NNW,333,6.0,7.0,99,0.00,,SCT010,1.65,VWS V14.01,2013-08-27 16:12:00,
2013-08-27 11:13:00,70.9,70.6,29.80,NNW,329,4.0,7.0,99,0.00,,SCT010,1.65,VWS V14.01,2013-08-27 16:13:00,
2013-08-27 11:14:00,70.9,70.6,29.80,NNW,342,4.0,7.0,99,0.00,,SCT010,1.65,VWS V14.01,2013-08-27 16:14:00,
2013-08-27 11:15:00,70.9,70.6,29.80,NNW,332,2.0,7.0,99,0.00,,SCT010,1.65,VWS V14.01,2013-08-27 16:15:00,
2013-08-27 11:16:00,70.9,70.6,29.80,NNW,332,1.0,7.0,99,0.00,,SCT010,1.65,VWS V14.01,2013-08-27 16:16:00,
2013-08-27 11:17:00,70.9,70.6,29.79,NNW,336,4.0,7.0,99,0.00,,SCT010,1.65,VWS V14.01,2013-08-27 16:17:00,
2013-08-27 11:18:00,71.0,70.7,29.80,NNW,336,4.0,7.0,99,0.00,,SCT010,1.65,VWS V14.01,2013-08-27 16:18:00,
2013-08-27 11:19:00,71.0,70.7,29.80,NNW,336,0.0,7.0,99,0.00,,SCT010,1.65,VWS V14.01,2013-08-27 16:19:00,
2013-08-27 11:21:00,71.0,70.7,29.80,North,350,0.0,7.0,99,0.00,,SCT010,1.65,VWS V14.01,2013-08-27 16:21:00,
2013-08-27 11:23:00,71.1,70.8,29.80,North,5,3.0,7.0,99,0.00,,SCT010,1.65,VWS V14.01,2013-08-27 16:23:00,
2013-08-27 11:24:00,71.3,71.0,29.80,NNE,17,0.0,2.0,99,0.00,,SCT010,1.65,VWS V14.01,2013-08-27 16:24:00,
2013-08-27 11:26:00,71.3,71.3,29.80,NNE,17,0.0,2.0,100,0.00,,SCT010,1.65,VWS V14.01,2013-08-27 16:26:00,
2013-08-27 11:27:00,71.3,71.0,29.80,North,355,1.0,2.0,99,0.00,,SCT010,1.65,VWS V14.01,2013-08-27 16:27:00,
2013-08-27 11:28:00,71.4,71.4,29.80,North,355,0.0,2.0,100,0.00,,SCT010,1.65,VWS V14.01,2013-08-27 16:28:00,
2013-08-27 11:29:00,71.6,71.3,29.80,North,351,2.0,4.0,99,0.00,,SCT010,1.65,VWS V14.01,2013-08-27 16:29:00,
2013-08-27 11:30:00,71.6,71.3,29.80,North,351,2.0,4.0,99,0.00,,SCT010,1.65,VWS V14.01,2013-08-27 16:30:00,
2013-08-27 11:31:00,71.7,71.4,29.80,NNW,344,6.0,6.0,99,0.00,,SCT010,1.65,VWS V14.01,2013-08-27 16:31:00,
2013-08-27 11:32:00,71.6,71.3,29.80,NNW,338,5.0,7.0,99,0.00,,SCT010,1.65,VWS V14.01,2013-08-27 16:32:00,
2013-08-27 11:34:00,71.5,71.2,29.80,NNW,336,5.0,7.0,99,0.00,,SCT010,1.65,VWS V14.01,2013-08-27 16:34:00,
2013-08-27 11:35:00,71.4,71.1,29.80,NNW,336,1.0,7.0,99,0.00,,SCT010,1.65,VWS V14.01,2013-08-27 16:35:00,
2013-08-27 11:37:00,71.5,71.2,29.79,NNW,340,4.0,7.0,99,0.00,,SCT010,1.65,VWS V14.01,2013-08-27 16:37:00,
2013-08-27 11:38:00,71.5,71.2,29.80,NNW,336,4.0,7.0,99,0.00,,SCT010,1.65,VWS V14.01,2013-08-27 16:38:00,
2013-08-27 11:39:00,71.6,71.3,29.80,NNW,336,0.0,7.0,99,0.00,,SCT010,1.65,VWS V14.01,2013-08-27 16:39:00,
2013-08-27 11:40:00,71.7,71.4,29.80,NNW,336,0.0,7.0,99,0.00,,SCT010,1.65,VWS V14.01,2013-08-27 16:40:00,
2013-08-27 11:42:00,71.9,71.9,29.80,NNW,336,0.0,7.0,100,0.00,,SCT010,1.65,VWS V14.01,2013-08-27 16:42:00,
2013-08-27 11:44:00,72.1,72.1,29.79,NNW,336,0.0,7.0,100,0.00,,SCT010,1.65,VWS V14.01,2013-08-27 16:44:00,
2013-08-27 11:45:00,72.3,72.0,29.80,NNW,336,0.0,7.0,99,0.00,,SCT010,1.65,VWS V14.01,2013-08-27 16:45:00,
2013-08-27 11:47:00,72.5,72.2,29.80,NNW,336,1.0,7.0,99,0.00,,SCT010,1.65,VWS V14.01,2013-08-27 16:47:00,
2013-08-27 11:49:00,72.8,72.8,29.80,NNE,26,5.0,7.0,100,0.00,,SCT010,1.65,VWS V14.01,2013-08-27 16:49:00,
2013-08-27 11:50:00,72.8,72.5,29.80,NNE,26,0.0,7.0,99,0.00,,SCT010,1.65,VWS V14.01,2013-08-27 16:50:00,
2013-08-27 11:51:00,73.0,72.7,29.79,NNE,26,1.0,7.0,99,0.00,,SCT010,1.65,VWS V14.01,2013-08-27 16:51:00,
2013-08-27 11:52:00,73.1,72.8,29.80,NNE,24,1.0,7.0,99,0.00,,SCT010,1.65,VWS V14.01,2013-08-27 16:52:00,
2013-08-27 11:54:00,73.2,73.2,29.80,NNE,24,1.0,2.0,100,0.00,,SCT010,1.65,VWS V14.01,2013-08-27 16:54:00,
2013-08-27 11:55:00,73.2,72.9,29.80,NNE,23,5.0,6.0,99,0.00,,SCT010,1.65,VWS V14.01,2013-08-27 16:55:00,
2013-08-27 11:56:00,73.1,72.8,29.80,NE,36,4.0,6.0,99,0.00,,SCT010,1.65,VWS V14.01,2013-08-27 16:56:00,
2013-08-27 11:57:00,72.9,72.6,29.80,North,355,3.0,6.0,99,0.00,,SCT010,1.65,VWS V14.01,2013-08-27 16:57:00,
2013-08-27 11:59:00,73.0,72.7,29.80,North,355,0.0,6.0,99,0.00,,SCT010,1.65,VWS V14.01,2013-08-27 16:59:00,
2013-08-27 12:00:00,73.1,72.8,29.80,North,355,0.0,6.0,99,0.00,,SCT010,1.65,VWS V14.01,2013-08-27 17:00:00,
2013-08-27 12:02:00,73.2,72.9,29.80,NNE,13,0.0,6.0,99,0.00,,SCT010,1.65,VWS V14.01,2013-08-27 17:02:00,
2013-08-27 12:04:00,73.6,73.3,29.80,NNE,13,0.0,6.0,99,0.00,,SCT010,1.65,VWS V14.01,2013-08-27 17:04:00,
2013-08-27 12:05:00,73.8,73.5,29.80,NNW,343,6.0,6.0,99,0.00,,SCT010,1.65,VWS V14.01,2013-08-27 17:05:00,
2013-08-27 12:07:00,74.0,73.1,29.80,NNW,338,5.0,9.0,97,0.00,,SCT010,1.65,VWS V14.01,2013-08-27 17:07:00,
2013-08-27 12:09:00,74.0,72.5,29.80,NNW,348,2.0,9.0,95,0.00,,SCT010,1.65,VWS V14.01,2013-08-27 17:09:00,
2013-08-27 12:11:00,73.9,72.1,29.80,NNE,23,0.0,9.0,94,0.00,,SCT010,1.65,VWS V14.01,2013-08-27 17:11:00,
2013-08-27 12:12:00,73.9,72.4,29.80,NNE,23,0.0,9.0,95,0.00,,SCT010,1.65,VWS V14.01,2013-08-27 17:12:00,
2013-08-27 12:14:00,74.0,72.5,29.79,NNE,23,0.0,9.0,95,0.00,,SCT010,1.65,VWS V14.01,2013-08-27 17:14:00,
2013-08-27 12:16:00,74.2,72.7,29.79,NNE,23,0.0,9.0,95,0.00,,SCT010,1.65,VWS V14.01,2013-08-27 17:16:00,
2013-08-27 12:17:00,74.4,72.9,29.79,NNW,336,4.0,9.0,95,0.00,,SCT010,1.65,VWS V14.01,2013-08-27 17:17:00,
2013-08-27 12:19:00,74.6,72.8,29.79,NNW,336,4.0,9.0,94,0.00,,SCT010,1.65,VWS V14.01,2013-08-27 17:19:00,
2013-08-27 12:21:00,75.0,73.2,29.79,NNW,336,0.0,9.0,94,0.00,,SCT010,1.65,VWS V14.01,2013-08-27 17:21:00,
2013-08-27 12:22:00,75.3,73.1,29.79,NNW,336,1.0,9.0,93,0.00,,SCT010,1.65,VWS V14.01,2013-08-27 17:22:00,
2013-08-27 12:23:00,75.4,73.2,29.79,NNW,335,2.0,2.0,93,0.00,,SCT010,1.65,VWS V14.01,2013-08-27 17:23:00,
2013-08-27 12:24:00,75.6,73.4,29.79,NNW,335,0.0,2.0,93,0.00,,SCT010,1.65,VWS V14.01,2013-08-27 17:24:00,
2013-08-27 12:26:00,75.9,73.7,29.79,NW,323,6.0,6.0,93,0.00,,SCT010,1.65,VWS V14.01,2013-08-27 17:26:00,
2013-08-27 12:27:00,76.1,73.3,29.79,NNW,344,5.0,6.0,91,0.00,,SCT010,1.65,VWS V14.01,2013-08-27 17:27:00,
2013-08-27 12:28:00,76.0,72.5,29.79,NNW,344,1.0,7.0,89,0.00,,SCT010,1.65,VWS V14.01,2013-08-27 17:28:00,
2013-08-27 12:29:00,76.0,72.9,29.79,NNW,344,0.0,7.0,90,0.00,,SCT010,1.65,VWS V14.01,2013-08-27 17:29:00,
2013-08-27 12:31:00,76.1,73.0,29.79,NNW,346,6.0,7.0,90,0.00,,SCT010,1.65,VWS V14.01,2013-08-27 17:31:00,
2013-08-27 12:32:00,76.2,72.7,29.79,NNW,339,6.0,7.0,89,0.00,,SCT010,1.65,VWS V14.01,2013-08-27 17:32:00,
2013-08-27 12:33:00,76.2,72.7,29.79,NNW,341,6.0,8.0,89,0.00,,SCT010,1.65,VWS V14.01,2013-08-27 17:33:00,
2013-08-27 12:34:00,76.3,73.2,29.79,NNW,335,8.0,9.0,90,0.00,,SCT010,1.65,VWS V14.01,2013-08-27 17:34:00,
2013-08-27 12:36:00,76.3,72.5,29.79,NNW,346,5.0,9.0,88,0.00,,SCT010,1.65,VWS V14.01,2013-08-27 17:36:00,
2013-08-27 12:37:00,76.4,72.6,29.79,North,5,2.0,9.0,88,0.00,,SCT010,1.65,VWS V14.01,2013-08-27 17:37:00,
2013-08-27 12:38:00,76.4,72.9,29.79,NNW,336,7.0,9.0,89,0.00,,SCT010,1.65,VWS V14.01,2013-08-27 17:38:00,
2013-08-27 12:40:00,76.4,72.6,29.79,NE,37,4.0,9.0,88,0.00,,SCT010,1.65,VWS V14.01,2013-08-27 17:40:00,
2013-08-27 12:41:00,76.5,72.3,29.79,NNW,332,6.0,9.0,87,0.00,,SCT010,1.65,VWS V14.01,2013-08-27 17:41:00,
2013-08-27 12:42:00,76.5,72.7,29.79,NNW,335,5.0,9.0,88,0.00,,SCT010,1.65,VWS V14.01,2013-08-27 17:42:00,
2013-08-27 12:43:00,76.6,73.1,29.79,NNW,334,5.0,9.0,89,0.00,,SCT010,1.65,VWS V14.01,2013-08-27 17:43:00,
2013-08-27 12:44:00,76.7,72.9,29.79,NW,326,5.0,9.0,88,0.00,,SCT010,1.65,VWS V14.01,2013-08-27 17:44:00,
2013-08-27 12:45:00,76.8,73.0,29.79,NNW,342,6.0,9.0,88,0.00,,SCT010,1.65,VWS V14.01,2013-08-27 17:45:00,
2013-08-27 12:46:00,76.8,72.6,29.79,North,355,2.0,9.0,87,0.00,,SCT010,1.65,VWS V14.01,2013-08-27 17:46:00,
2013-08-27 12:48:00,76.7,72.5,29.78,NNW,339,5.0,9.0,87,0.00,,SCT010,1.65,VWS V14.01,2013-08-27 17:48:00,
2013-08-27 12:50:00,76.9,72.7,29.78,NNW,343,2.0,9.0,87,0.00,,SCT010,1.65,VWS V14.01,2013-08-27 17:50:00,
2013-08-27 12:51:00,77.0,72.8,29.78,NNW,341,5.0,9.0,87,0.00,,SCT010,1.65,VWS V14.01,2013-08-27 17:51:00,
2013-08-27 12:53:00,77.1,72.9,29.79,NNW,348,6.0,9.0,87,0.00,,SCT010,1.65,VWS V14.01,2013-08-27 17:53:00,
2013-08-27 12:54:00,77.2,72.7,29.79,NNW,337,4.0,6.0,86,0.00,,SCT010,1.65,VWS V14.01,2013-08-27 17:54:00,
2013-08-27 12:55:00,77.2,72.7,29.79,NNW,348,7.0,9.0,86,0.00,,SCT010,1.65,VWS V14.01,2013-08-27 17:55:00,
2013-08-27 12:56:00,77.3,72.4,29.79,NNW,340,6.0,9.0,85,0.00,,SCT010,1.65,VWS V14.01,2013-08-27 17:56:00,
2013-08-27 12:58:00,77.3,72.4,29.79,NNW,340,5.0,9.0,85,0.00,,SCT010,1.65,VWS V14.01,2013-08-27 17:58:00,
2013-08-27 13:00:00,77.4,72.9,29.79,NNW,341,4.0,9.0,86,0.00,,SCT010,1.65,VWS V14.01,2013-08-27 18:00:00,
2013-08-27 13:02:00,77.5,72.3,29.79,NNW,336,6.0,9.0,84,0.00,,SCT010,1.65,VWS V14.01,2013-08-27 18:02:00,
2013-08-27 13:03:00,77.6,72.7,29.79,NNE,14,3.0,9.0,85,0.00,,SCT010,1.65,VWS V14.01,2013-08-27 18:03:00,
2013-08-27 13:05:00,77.5,72.3,29.78,NNW,345,6.0,9.0,84,0.00,,SCT010,1.65,VWS V14.01,2013-08-27 18:05:00,
2013-08-27 13:07:00,77.5,72.3,29.79,North,355,1.0,9.0,84,0.00,,SCT015,1.65,VWS V14.01,2013-08-27 18:07:00,
2013-08-27 13:08:00,77.6,72.4,29.78,NNW,345,1.0,9.0,84,0.00,,SCT015,1.65,VWS V14.01,2013-08-27 18:08:00,
2013-08-27 13:10:00,77.6,72.7,29.78,NNW,340,7.0,9.0,85,0.00,,SCT015,1.65,VWS V14.01,2013-08-27 18:10:00,
2013-08-27 13:12:00,77.7,72.5,29.78,NNW,339,6.0,9.0,84,0.00,,SCT015,1.65,VWS V14.01,2013-08-27 18:12:00,
2013-08-27 13:14:00,77.7,72.1,29.78,NNW,348,5.0,9.0,83,0.00,,SCT015,1.65,VWS V14.01,2013-08-27 18:14:00,
2013-08-27 13:15:00,77.9,72.7,29.79,NNW,342,5.0,9.0,84,0.00,,SCT015,1.65,VWS V14.01,2013-08-27 18:15:00,
2013-08-27 13:16:00,77.9,72.7,29.79,NNW,346,5.0,9.0,84,0.00,,SCT015,1.65,VWS V14.01,2013-08-27 18:16:00,
2013-08-27 13:17:00,78.0,72.4,29.78,NNW,342,7.0,9.0,83,0.00,,SCT015,1.65,VWS V14.01,2013-08-27 18:17:00,
2013-08-27 13:19:00,78.1,72.2,29.79,NNW,333,5.0,9.0,82,0.00,,SCT015,1.65,VWS V14.01,2013-08-27 18:19:00,
2013-08-27 13:21:00,78.2,72.3,29.79,North,349,5.0,9.0,82,0.00,,SCT015,1.65,VWS V14.01,2013-08-27 18:21:00,
2013-08-27 13:22:00,78.2,72.3,29.79,NNW,334,5.0,9.0,82,0.00,,SCT015,1.65,VWS V14.01,2013-08-27 18:22:00,
2013-08-27 13:24:00,78.3,72.4,29.79,NNW,333,2.0,4.0,82,0.00,,SCT015,1.65,VWS V14.01,2013-08-27 18:24:00,
2013-08-27 13:26:00,78.3,71.6,29.79,NNW,331,4.0,7.0,80,0.00,,SCT015,1.65,VWS V14.01,2013-08-27 18:26:00,
2013-08-27 13:27:00,78.3,71.6,29.79,NNW,346,6.0,7.0,80,0.00,,SCT015,1.65,VWS V14.01,2013-08-27 18:27:00,
2013-08-27 13:28:00,78.4,72.1,29.79,NNW,333,5.0,7.0,81,0.00,,SCT015,1.65,VWS V14.01,2013-08-27 18:28:00,
2013-08-27 13:30:00,78.4,72.1,29.79,North,5,3.0,8.0,81,0.00,,SCT015,1.65,VWS V14.01,2013-08-27 18:30:00,
2013-08-27 13:31:00,78.4,71.7,29.79,North,5,0.0,8.0,80,0.00,,SCT015,1.65,VWS V14.01,2013-08-27 18:31:00,
2013-08-27 13:32:00,78.4,71.7,29.79,North,5,0.0,8.0,80,0.00,,SCT015,1.65,VWS V14.01,2013-08-27 18:32:00,
2013-08-27 13:33:00,78.5,72.2,29.79,NNW,338,2.0,8.0,81,0.00,,SCT015,1.65,VWS V14.01,2013-08-27 18:33:00,
2013-08-27 13:35:00,78.8,72.8,29.79,NNW,336,7.0,8.0,82,0.00,,SCT015,1.65,VWS V14.01,2013-08-27 18:35:00,
2013-08-27 13:36:00,78.9,72.2,29.79,NNW,346,0.0,8.0,80,0.00,,SCT015,1.65,VWS V14.01,2013-08-27 18:36:00,
2013-08-27 13:37:00,79.1,73.1,29.79,NNW,346,1.0,8.0,82,0.00,,SCT015,1.65,VWS V14.01,2013-08-27 18:37:00,
2013-08-27 13:38:00,79.2,73.6,29.78,NNW,341,5.0,8.0,83,0.00,,SCT015,1.65,VWS V14.01,2013-08-27 18:38:00,
2013-08-27 13:40:00,79.3,72.2,29.78,North,350,5.0,8.0,79,0.00,,SCT015,1.65,VWS V14.01,2013-08-27 18:40:00,
2013-08-27 13:41:00,79.4,72.3,29.79,NNW,340,2.0,8.0,79,0.00,,SCT015,1.65,VWS V14.01,2013-08-27 18:41:00,
2013-08-27 13:42:00,79.4,72.7,29.79,NNW,340,4.0,8.0,80,0.00,,SCT015,1.65,VWS V14.01,2013-08-27 18:42:00,
2013-08-27 13:43:00,79.4,72.3,29.78,NNW,344,5.0,8.0,79,0.00,,SCT015,1.65,VWS V14.01,2013-08-27 18:43:00,
2013-08-27 13:44:00,79.5,73.2,29.78,NE,38,4.0,10.0,81,0.00,,SCT015,1.65,VWS V14.01,2013-08-27 18:44:00,
2013-08-27 13:45:00,79.6,72.9,29.79,NNW,342,6.0,10.0,80,0.00,,SCT015,1.65,VWS V14.01,2013-08-27 18:45:00,
2013-08-27 13:46:00,79.6,72.5,29.79,NNW,338,1.0,10.0,79,0.00,,SCT015,1.65,VWS V14.01,2013-08-27 18:46:00,
2013-08-27 13:47:00,79.6,72.1,29.79,NNW,338,0.0,10.0,78,0.00,,SCT015,1.65,VWS V14.01,2013-08-27 18:47:00,
2013-08-27 13:48:00,79.7,72.6,29.79,NNW,338,0.0,10.0,79,0.00,,SCT015,1.65,VWS V14.01,2013-08-27 18:48:00,
2013-08-27 13:49:00,79.7,73.0,29.79,NNW,338,2.0,10.0,80,0.00,,SCT015,1.65,VWS V14.01,2013-08-27 18:49:00,
2013-08-27 13:51:00,79.9,72.8,29.79,NNW,340,6.0,10.0,79,0.00,,SCT015,1.65,VWS V14.01,2013-08-27 18:51:00,
2013-08-27 13:52:00,79.9,72.8,29.79,NNW,345,2.0,10.0,79,0.00,,SCT015,1.65,VWS V14.01,2013-08-27 18:52:00,
2013-08-27 13:53:00,80.0,72.9,29.79,NNE,15,5.0,6.0,79,0.00,,SCT015,1.65,VWS V14.01,2013-08-27 18:53:00,
2013-08-27 13:54:00,80.0,72.2,29.79,NNE,17,4.0,6.0,77,0.00,,SCT015,1.65,VWS V14.01,2013-08-27 18:54:00,
2013-08-27 13:56:00,80.1,72.6,29.79,NNE,28,1.0,6.0,78,0.00,,SCT015,1.65,VWS V14.01,2013-08-27 18:56:00,
2013-08-27 13:57:00,80.1,72.6,29.79,NNW,340,6.0,6.0,78,0.00,,SCT015,1.65,VWS V14.01,2013-08-27 18:57:00,
2013-08-27 13:58:00,80.2,72.3,29.79,NNW,344,3.0,7.0,77,0.00,,SCT015,1.65,VWS V14.01,2013-08-27 18:58:00,
2013-08-27 13:59:00,80.2,72.3,29.79,NNW,343,5.0,7.0,77,0.00,,SCT015,1.65,VWS V14.01,2013-08-27 18:59:00,
2013-08-27 14:01:00,80.2,71.9,29.79,NNW,348,1.0,7.0,76,0.00,,SCT015,1.65,VWS V14.01,2013-08-27 19:01:00,
2013-08-27 14:02:00,80.2,71.9,29.79,North,5,2.0,7.0,76,0.00,,SCT015,1.65,VWS V14.01,2013-08-27 19:02:00,
2013-08-27 14:03:00,80.3,72.8,29.79,North,351,5.0,7.0,78,0.00,,SCT015,1.65,VWS V14.01,2013-08-27 19:03:00,
2013-08-27 14:05:00,80.3,72.4,29.79,North,350,1.0,7.0,77,0.00,,SCT015,1.65,VWS V14.01,2013-08-27 19:05:00,
2013-08-27 14:06:00,80.5,73.4,29.79,North,355,4.0,7.0,79,0.00,,SCT015,1.65,VWS V14.01,2013-08-27 19:06:00,
2013-08-27 14:07:00,80.5,73.4,29.79,North,355,6.0,7.0,79,0.00,,SCT015,1.65,VWS V14.01,2013-08-27 19:07:00,
2013-08-27 14:08:00,80.5,72.2,29.79,NNW,338,5.0,7.0,76,0.00,,SCT015,1.65,VWS V14.01,2013-08-27 19:08:00,
2013-08-27 14:10:00,80.5,72.2,29.79,NNW,333,4.0,7.0,76,0.00,,SCT015,1.65,VWS V14.01,2013-08-27 19:10:00,
2013-08-27 14:11:00,80.5,72.2,29.79,North,350,4.0,8.0,76,0.00,,SCT015,1.65,VWS V14.01,2013-08-27 19:11:00,
2013-08-27 14:12:00,80.5,72.6,29.79,NNW,328,5.0,8.0,77,0.00,,SCT015,1.65,VWS V14.01,2013-08-27 19:12:00,
2013-08-27 14:13:00,80.4,72.2,29.79,NNW,327,6.0,10.0,76,0.00,,SCT015,1.65,VWS V14.01,2013-08-27 19:13:00,
2013-08-27 14:15:00,80.3,71.7,29.79,NNW,329,1.0,10.0,75,0.00,,SCT015,1.65,VWS V14.01,2013-08-27 19:15:00,
2013-08-27 14:16:00,80.3,71.7,29.79,North,360,2.0,10.0,75,0.00,,SCT015,1.65,VWS V14.01,2013-08-27 19:16:00,
2013-08-27 14:17:00,80.3,72.8,29.79,NNW,344,6.0,10.0,78,0.00,,SCT015,1.65,VWS V14.01,2013-08-27 19:17:00,
2013-08-27 14:18:00,80.3,72.1,29.79,NNW,333,7.0,10.0,76,0.00,,SCT015,1.65,VWS V14.01,2013-08-27 19:18:00,
2013-08-27 14:19:00,80.3,72.1,29.79,North,350,5.0,10.0,76,0.00,,SCT015,1.65,VWS V14.01,2013-08-27 19:19:00,
2013-08-27 14:20:00,80.4,72.9,29.79,NNW,336,5.0,10.0,78,0.00,,SCT015,1.65,VWS V14.01,2013-08-27 19:20:00,
2013-08-27 14:22:00,80.5,72.6,29.79,NNW,337,3.0,10.0,77,0.00,,SCT015,1.65,VWS V14.01,2013-08-27 19:22:00,
2013-08-27 14:23:00,80.6,72.7,29.79,NNW,337,0.0,1.0,77,0.00,,SCT015,1.65,VWS V14.01,2013-08-27 19:23:00,
2013-08-27 14:24:00,80.6,73.1,29.79,NNW,337,0.0,1.0,78,0.00,,SCT015,1.65,VWS V14.01,2013-08-27 19:24:00,
2013-08-27 14:26:00,80.7,72.4,29.79,NNW,332,6.0,9.0,76,0.00,,SCT015,1.65,VWS V14.01,2013-08-27 19:26:00,
2013-08-27 14:27:00,80.5,71.8,29.79,North,355,0.0,9.0,75,0.00,,SCT015,1.65,VWS V14.01,2013-08-27 19:27:00,
2013-08-27 14:28:00,80.5,71.8,29.79,North,355,0.0,9.0,75,0.00,,SCT015,1.65,VWS V14.01,2013-08-27 19:28:00,
2013-08-27 14:29:00,80.5,72.6,29.79,North,355,0.0,9.0,77,0.00,,SCT015,1.65,VWS V14.01,2013-08-27 19:29:00,
2013-08-27 14:31:00,80.6,72.7,29.79,NNW,333,4.0,9.0,77,0.00,,SCT015,1.65,VWS V14.01,2013-08-27 19:31:00,
2013-08-27 14:33:00,80.6,72.7,29.79,NNW,348,4.0,9.0,77,0.00,,SCT015,1.65,VWS V14.01,2013-08-27 19:33:00,
2013-08-27 14:34:00,80.6,72.3,29.79,NNW,348,3.0,9.0,76,0.00,,SCT015,1.65,VWS V14.01,2013-08-27 19:34:00,
2013-08-27 14:37:00,80.6,72.3,29.79,NNW,346,4.0,9.0,76,0.00,,SCT015,1.65,VWS V14.01,2013-08-27 19:37:00,
2013-08-27 14:38:00,80.6,72.3,29.79,NNW,344,5.0,9.0,76,0.00,,SCT015,1.65,VWS V14.01,2013-08-27 19:38:00,
2013-08-27 14:39:00,80.6,72.3,29.79,NNW,336,2.0,9.0,76,0.00,,SCT015,1.65,VWS V14.01,2013-08-27 19:39:00,
2013-08-27 14:42:00,80.5,72.2,29.79,NNW,339,0.0,9.0,76,0.00,,SCT015,1.65,VWS V14.01,2013-08-27 19:42:00,
2013-08-27 14:43:00,80.6,72.3,29.79,North,5,0.0,9.0,76,0.00,,SCT015,1.65,VWS V14.01,2013-08-27 19:43:00,
2013-08-27 14:44:00,80.6,71.9,29.79,NNE,23,2.0,9.0,75,0.00,,SCT015,1.65,VWS V14.01,2013-08-27 19:44:00,
2013-08-27 14:48:00,80.8,72.5,29.79,NNW,340,5.0,9.0,76,0.00,,SCT015,1.65,VWS V14.01,2013-08-27 19:48:00,
2013-08-27 14:49:00,80.9,72.6,29.79,NNW,344,7.0,9.0,76,0.00,,SCT015,1.65,VWS V14.01,2013-08-27 19:49:00,
2013-08-27 14:53:00,80.8,72.1,29.78,NNW,342,5.0,9.0,75,0.00,,SCT015,1.65,VWS V14.01,2013-08-27 19:53:00,
2013-08-27 14:54:00,80.7,72.8,29.78,NNW,342,4.0,5.0,77,0.00,,SCT015,1.65,VWS V14.01,2013-08-27 19:54:00,
2013-08-27 14:58:00,80.7,71.7,29.78,NNW,342,7.0,7.0,74,0.00,,SCT015,1.65,VWS V14.01,2013-08-27 19:58:00,
2013-08-27 14:59:00,80.7,71.7,29.78,NNW,344,6.0,7.0,74,0.00,,SCT015,1.65,VWS V14.01,2013-08-27 19:59:00,
2013-08-27 15:03:00,80.5,70.7,29.79,North,5,2.0,8.0,72,0.00,,FEW025,1.65,VWS V14.01,2013-08-27 20:03:00,
2013-08-27 15:04:00,80.5,71.8,29.79,NNW,333,5.0,8.0,75,0.00,,FEW025,1.65,VWS V14.01,2013-08-27 20:04:00,
2013-08-27 15:05:00,80.5,71.1,29.79,NNW,333,6.0,8.0,73,0.00,,FEW025,1.65,VWS V14.01,2013-08-27 20:05:00,
2013-08-27 15:09:00,80.5,71.8,29.78,North,5,0.0,8.0,75,0.00,,FEW025,1.65,VWS V14.01,2013-08-27 20:09:00,
2013-08-27 15:10:00,80.6,72.3,29.79,North,5,1.0,8.0,76,0.00,,FEW025,1.65,VWS V14.01,2013-08-27 20:10:00,
2013-08-27 15:14:00,80.8,72.1,29.79,NNE,20,0.0,9.0,75,0.00,,FEW025,1.65,VWS V14.01,2013-08-27 20:14:00,
2013-08-27 15:15:00,80.9,71.8,29.78,NNE,24,0.0,9.0,74,0.00,,FEW025,1.65,VWS V14.01,2013-08-27 20:15:00,
2013-08-27 15:19:00,80.9,71.8,29.78,NNW,345,2.0,9.0,74,0.00,,FEW025,1.65,VWS V14.01,2013-08-27 20:19:00,
2013-08-27 15:20:00,80.9,71.8,29.78,NE,55,0.0,9.0,74,0.00,,FEW025,1.65,VWS V14.01,2013-08-27 20:20:00,
2013-08-27 15:24:00,81.1,72.4,29.79,NE,54,1.0,1.0,75,0.00,,FEW025,1.65,VWS V14.01,2013-08-27 20:24:00,
2013-08-27 15:25:00,81.1,71.6,29.79,NE,36,0.0,4.0,73,0.00,,FEW025,1.65,VWS V14.01,2013-08-27 20:25:00,
2013-08-27 15:29:00,81.2,72.1,29.79,NNE,25,0.0,6.0,74,0.00,,FEW025,1.65,VWS V14.01,2013-08-27 20:29:00,
2013-08-27 15:30:00,81.2,71.7,29.79,NNE,25,0.0,6.0,73,0.00,,FEW025,1.65,VWS V14.01,2013-08-27 20:30:00,
2013-08-27 15:31:00,81.2,71.7,29.79,NNE,25,0.0,6.0,73,0.00,,FEW025,1.65,VWS V14.01,2013-08-27 20:31:00,
2013-08-27 15:34:00,81.2,72.1,29.79,NNW,346,1.0,6.0,74,0.00,,FEW025,1.65,VWS V14.01,2013-08-27 20:34:00,
2013-08-27 15:35:00,81.2,72.5,29.79,NE,46,6.0,6.0,75,0.00,,FEW025,1.65,VWS V14.01,2013-08-27 20:35:00,
2013-08-27 15:36:00,81.2,71.7,29.79,NE,45,0.0,6.0,73,0.00,,FEW025,1.65,VWS V14.01,2013-08-27 20:36:00,
2013-08-27 15:39:00,80.9,71.4,29.79,NNE,30,2.0,6.0,73,0.00,,FEW025,1.65,VWS V14.01,2013-08-27 20:39:00,
2013-08-27 15:40:00,80.9,71.4,29.79,NNE,30,1.0,6.0,73,0.00,,FEW025,1.65,VWS V14.01,2013-08-27 20:40:00,
2013-08-27 15:41:00,80.9,71.4,29.79,North,355,4.0,6.0,73,0.00,,FEW025,1.65,VWS V14.01,2013-08-27 20:41:00,
2013-08-27 15:45:00,80.9,71.0,29.79,North,10,0.0,6.0,72,0.00,,FEW025,1.65,VWS V14.01,2013-08-27 20:45:00,
2013-08-27 15:46:00,81.0,71.5,29.79,North,10,0.0,6.0,73,0.00,,FEW025,1.65,VWS V14.01,2013-08-27 20:46:00,
2013-08-27 15:50:00,81.0,71.5,29.79,NNW,339,1.0,8.0,73,0.00,,FEW025,1.65,VWS V14.01,2013-08-27 20:50:00,
2013-08-27 15:51:00,80.9,71.8,29.79,NNW,339,4.0,8.0,74,0.00,,FEW025,1.65,VWS V14.01,2013-08-27 20:51:00,
2013-08-27 15:55:00,80.7,71.2,29.79,NNE,22,4.0,6.0,73,0.00,,FEW025,1.65,VWS V14.01,2013-08-27 20:55:00,
2013-08-27 15:56:00,80.7,71.7,29.79,NNE,22,2.0,6.0,74,0.00,,FEW025,1.65,VWS V14.01,2013-08-27 20:56:00,
2013-08-27 16:00:00,80.7,71.7,29.79,NNW,338,3.0,6.0,74,0.00,,FEW025,1.65,VWS V14.01,2013-08-27 21:00:00,
2013-08-27 16:01:00,80.7,72.0,29.79,NNW,338,2.0,6.0,75,0.00,,FEW025,1.65,VWS V14.01,2013-08-27 21:01:00,
2013-08-27 16:06:00,80.7,72.0,29.79,NNW,340,0.0,6.0,75,0.00,,FEW025,1.65,VWS V14.01,2013-08-27 21:06:00,
2013-08-27 16:07:00,80.6,72.3,29.79,NNW,340,0.0,6.0,76,0.00,,FEW025,1.65,VWS V14.01,2013-08-27 21:07:00,
2013-08-27 16:11:00,80.5,71.5,29.79,North,355,1.0,6.0,74,0.00,,FEW025,1.65,VWS V14.01,2013-08-27 21:11:00,
2013-08-27 16:12:00,80.5,71.5,29.79,North,355,0.0,6.0,74,0.00,,FEW025,1.65,VWS V14.01,2013-08-27 21:12:00,
2013-08-27 16:13:00,80.4,71.4,29.79,NNW,341,4.0,6.0,74,0.00,,FEW025,1.65,VWS V14.01,2013-08-27 21:13:00,
2013-08-27 16:16:00,80.4,71.8,29.79,NNW,340,2.0,6.0,75,0.00,,FEW025,1.65,VWS V14.01,2013-08-27 21:16:00,
2013-08-27 16:17:00,80.4,71.4,29.79,NNW,340,2.0,6.0,74,0.00,,FEW025,1.65,VWS V14.01,2013-08-27 21:17:00,
2013-08-27 16:18:00,80.4,71.8,29.79,NNW,337,4.0,6.0,75,0.00,,FEW025,1.65,VWS V14.01,2013-08-27 21:18:00,
2013-08-27 16:22:00,80.3,72.1,29.79,NNW,344,5.0,7.0,76,0.00,,FEW025,1.65,VWS V14.01,2013-08-27 21:22:00,
2013-08-27 16:23:00,80.3,72.1,29.79,NNW,343,5.0,7.0,76,0.00,,FEW025,1.65,VWS V14.01,2013-08-27 21:23:00,
2013-08-27 16:27:00,80.1,71.9,29.79,NNW,339,0.0,5.0,76,0.00,,FEW025,1.65,VWS V14.01,2013-08-27 21:27:00,
2013-08-27 16:28:00,80.1,71.9,29.79,NNW,344,4.0,5.0,76,0.00,,FEW025,1.65,VWS V14.01,2013-08-27 21:28:00,
2013-08-27 16:32:00,80.0,72.5,29.80,NNW,343,6.0,7.0,78,0.00,,FEW025,1.65,VWS V14.01,2013-08-27 21:32:00,
2013-08-27 16:33:00,80.0,72.5,29.80,NW,323,2.0,7.0,78,0.00,,FEW025,1.65,VWS V14.01,2013-08-27 21:33:00,
2013-08-27 16:37:00,80.0,72.2,29.80,NNW,342,4.0,8.0,77,0.00,,FEW025,1.65,VWS V14.01,2013-08-27 21:37:00,
2013-08-27 16:38:00,80.0,72.2,29.80,NNW,342,3.0,8.0,77,0.00,,FEW025,1.65,VWS V14.01,2013-08-27 21:38:00,
2013-08-27 16:43:00,79.8,72.3,29.80,NNW,342,6.0,8.0,78,0.00,,FEW025,1.65,VWS V14.01,2013-08-27 21:43:00,
2013-08-27 16:48:00,79.4,72.7,29.80,NNW,339,7.0,8.0,80,0.00,,FEW025,1.65,VWS V14.01,2013-08-27 21:48:00,
2013-08-27 16:49:00,79.3,71.8,29.80,NNW,332,7.0,8.0,78,0.00,,FEW025,1.65,VWS V14.01,2013-08-27 21:49:00,
2013-08-27 16:53:00,78.9,71.8,29.80,NNW,345,5.0,8.0,79,0.00,,FEW025,1.65,VWS V14.01,2013-08-27 21:53:00,
2013-08-27 16:54:00,78.9,72.2,29.81,North,350,4.0,6.0,80,0.00,,FEW025,1.65,VWS V14.01,2013-08-27 21:54:00,
2013-08-27 16:58:00,78.8,71.7,29.81,NNE,15,0.0,7.0,79,0.00,,FEW025,1.65,VWS V14.01,2013-08-27 21:58:00,
2013-08-27 16:59:00,78.7,71.6,29.81,NNE,15,1.0,7.0,79,0.00,,FEW025,1.65,VWS V14.01,2013-08-27 21:59:00,
2013-08-27 17:03:00,78.6,71.6,29.81,NNE,31,2.0,7.0,79,0.00,,FEW025,1.65,VWS V14.01,2013-08-27 22:03:00,
2013-08-27 17:04:00,78.7,71.6,29.81,NNW,338,7.0,7.0,79,0.00,,FEW025,1.65,VWS V14.01,2013-08-27 22:04:00,
2013-08-27 17:08:00,78.5,71.4,29.81,NNW,330,3.0,7.0,79,0.00,,FEW025,1.65,VWS V14.01,2013-08-27 22:08:00,
2013-08-27 17:09:00,78.5,71.4,29.81,NNW,329,2.0,7.0,79,0.00,,FEW025,1.65,VWS V14.01,2013-08-27 22:09:00,
2013-08-27 17:14:00,78.4,71.7,29.81,NW,323,5.0,7.0,80,0.00,,FEW025,1.65,VWS V14.01,2013-08-27 22:14:00,
2013-08-27 17:19:00,78.3,72.0,29.81,NNW,334,4.0,7.0,81,0.00,,FEW025,1.65,VWS V14.01,2013-08-27 22:19:00,
2013-08-27 17:24:00,78.2,71.9,29.81,NNW,336,3.0,4.0,81,0.00,,FEW025,1.65,VWS V14.01,2013-08-27 22:24:00,
2013-08-27 17:26:00,78.1,72.2,29.81,NNW,336,6.0,7.0,82,0.00,,FEW025,1.65,VWS V14.01,2013-08-27 22:26:00,
2013-08-27 17:29:00,78.0,72.1,29.81,North,350,1.0,7.0,82,0.00,,FEW025,1.65,VWS V14.01,2013-08-27 22:29:00,
2013-08-27 17:30:00,78.0,72.1,29.81,NNW,344,2.0,7.0,82,0.00,,FEW025,1.65,VWS V14.01,2013-08-27 22:30:00,
2013-08-27 17:31:00,78.0,72.1,29.81,NNW,344,2.0,7.0,82,0.00,,FEW025,1.65,VWS V14.01,2013-08-27 22:31:00,
2013-08-27 17:34:00,78.0,72.1,29.81,NNW,344,2.0,7.0,82,0.00,,FEW025,1.65,VWS V14.01,2013-08-27 22:34:00,
2013-08-27 17:35:00,77.9,72.0,29.81,NNW,342,1.0,7.0,82,0.00,,FEW025,1.65,VWS V14.01,2013-08-27 22:35:00,
2013-08-27 17:36:00,77.9,72.0,29.81,NNW,342,1.0,7.0,82,0.00,,FEW025,1.65,VWS V14.01,2013-08-27 22:36:00,
2013-08-27 17:39:00,77.9,72.0,29.81,NNW,339,5.0,7.0,82,0.00,,FEW025,1.65,VWS V14.01,2013-08-27 22:39:00,
2013-08-27 17:40:00,77.9,71.6,29.81,NNW,336,5.0,7.0,81,0.00,,FEW025,1.65,VWS V14.01,2013-08-27 22:40:00,
2013-08-27 17:41:00,77.9,71.6,29.81,NNW,338,0.0,7.0,81,0.00,,FEW025,1.65,VWS V14.01,2013-08-27 22:41:00,
2013-08-27 17:44:00,77.8,71.9,29.81,NNW,339,3.0,7.0,82,0.00,,FEW025,1.65,VWS V14.01,2013-08-27 22:44:00,
2013-08-27 17:45:00,77.8,71.9,29.81,NNW,339,0.0,7.0,82,0.00,,FEW025,1.65,VWS V14.01,2013-08-27 22:45:00,
2013-08-27 17:46:00,77.8,71.9,29.81,NNW,339,2.0,7.0,82,0.00,,FEW025,1.65,VWS V14.01,2013-08-27 22:46:00,
2013-08-27 17:50:00,77.8,71.9,29.81,NNW,338,4.0,7.0,82,0.00,,FEW025,1.65,VWS V14.01,2013-08-27 22:50:00,
2013-08-27 17:51:00,77.7,71.8,29.81,NNW,332,3.0,7.0,82,0.00,,FEW025,1.65,VWS V14.01,2013-08-27 22:51:00,
2013-08-27 17:55:00,77.5,71.6,29.81,NW,323,4.0,6.0,82,0.00,,FEW025,1.65,VWS V14.01,2013-08-27 22:55:00,
2013-08-27 17:56:00,77.4,71.5,29.81,NNW,344,2.0,6.0,82,0.00,,FEW025,1.65,VWS V14.01,2013-08-27 22:56:00,
2013-08-27 18:00:00,77.3,71.7,29.81,NNW,337,5.0,7.0,83,0.00,,FEW025,1.65,VWS V14.01,2013-08-27 23:00:00,
2013-08-27 18:01:00,77.3,71.4,29.81,NNW,335,5.0,7.0,82,0.00,,FEW025,1.65,VWS V14.01,2013-08-27 23:01:00,
2013-08-27 18:02:00,77.2,71.3,29.81,NNW,336,6.0,7.0,82,0.00,,FEW025,1.65,VWS V14.01,2013-08-27 23:02:00,
2013-08-27 18:05:00,77.1,71.5,29.81,NNW,334,4.0,7.0,83,0.00,,FEW030,1.65,VWS V14.01,2013-08-27 23:05:00,
2013-08-27 18:06:00,77.1,71.5,29.81,NNW,334,4.0,7.0,83,0.00,,FEW030,1.65,VWS V14.01,2013-08-27 23:06:00,
2013-08-27 18:07:00,77.0,71.4,29.81,NNW,334,4.0,7.0,83,0.00,,FEW030,1.65,VWS V14.01,2013-08-27 23:07:00,
2013-08-27 18:10:00,76.9,71.3,29.81,NNW,336,4.0,7.0,83,0.00,,FEW030,1.65,VWS V14.01,2013-08-27 23:10:00,
2013-08-27 18:11:00,76.8,71.2,29.81,NNW,336,1.0,7.0,83,0.00,,FEW030,1.65,VWS V14.01,2013-08-27 23:11:00,
2013-08-27 18:12:00,76.7,71.2,29.81,NNW,336,2.0,7.0,83,0.00,,FEW030,1.65,VWS V14.01,2013-08-27 23:12:00,
2013-08-27 18:15:00,76.6,71.4,29.82,NNW,336,1.0,7.0,84,0.00,,FEW030,1.65,VWS V14.01,2013-08-27 23:15:00,
2013-08-27 18:16:00,76.6,71.4,29.82,NNW,336,2.0,7.0,84,0.00,,FEW030,1.65,VWS V14.01,2013-08-27 23:16:00,
2013-08-27 18:17:00,76.5,71.3,29.82,NNW,336,2.0,7.0,84,0.00,,FEW030,1.65,VWS V14.01,2013-08-27 23:17:00,
2013-08-27 18:18:00,76.5,71.3,29.82,NNW,336,1.0,7.0,84,0.00,,FEW030,1.65,VWS V14.01,2013-08-27 23:18:00,
2013-08-27 18:20:00,76.4,71.2,29.82,NNW,339,2.0,7.0,84,0.00,,FEW030,1.65,VWS V14.01,2013-08-27 23:20:00,
2013-08-27 18:21:00,76.4,71.2,29.82,NNW,333,4.0,7.0,84,0.00,,FEW030,1.65,VWS V14.01,2013-08-27 23:21:00,
2013-08-27 18:22:00,76.4,71.2,29.82,NNW,333,4.0,7.0,84,0.00,,FEW030,1.65,VWS V14.01,2013-08-27 23:22:00,
2013-08-27 18:23:00,76.3,71.1,29.82,NNW,333,5.0,5.0,84,0.00,,FEW030,1.65,VWS V14.01,2013-08-27 23:23:00,
2013-08-27 18:26:00,76.2,71.0,29.82,NNW,335,0.0,5.0,84,0.00,,FEW030,1.65,VWS V14.01,2013-08-27 23:26:00,
2013-08-27 18:27:00,76.2,71.4,29.82,NNW,344,0.0,5.0,85,0.00,,FEW030,1.65,VWS V14.01,2013-08-27 23:27:00,
2013-08-27 18:29:00,76.1,70.9,29.82,NNW,344,4.0,5.0,84,0.00,,FEW030,1.65,VWS V14.01,2013-08-27 23:29:00,
2013-08-27 18:31:00,76.0,71.2,29.82,NNW,344,2.0,5.0,85,0.00,,FEW030,1.65,VWS V14.01,2013-08-27 23:31:00,
2013-08-27 18:32:00,76.0,70.8,29.82,NNW,344,2.0,5.0,84,0.00,,FEW030,1.65,VWS V14.01,2013-08-27 23:32:00,
2013-08-27 18:34:00,75.9,70.7,29.82,NNW,340,4.0,5.0,84,0.00,,FEW030,1.65,VWS V14.01,2013-08-27 23:34:00,
2013-08-27 18:36:00,75.8,71.0,29.82,NNW,337,4.0,6.0,85,0.00,,FEW030,1.65,VWS V14.01,2013-08-27 23:36:00,
2013-08-27 18:37:00,75.8,71.0,29.82,NNW,337,1.0,6.0,85,0.00,,FEW030,1.65,VWS V14.01,2013-08-27 23:37:00,
2013-08-27 18:38:00,75.7,70.9,29.82,NNW,337,1.0,6.0,85,0.00,,FEW030,1.65,VWS V14.01,2013-08-27 23:38:00,
2013-08-27 18:39:00,75.7,70.9,29.82,NNW,337,2.0,6.0,85,0.00,,FEW030,1.65,VWS V14.01,2013-08-27 23:39:00,
2013-08-27 18:41:00,75.6,70.8,29.82,NNW,337,2.0,6.0,85,0.00,,FEW030,1.65,VWS V14.01,2013-08-27 23:41:00,
2013-08-27 18:42:00,75.5,70.7,29.82,NNW,337,3.0,6.0,85,0.00,,FEW030,1.65,VWS V14.01,2013-08-27 23:42:00,
2013-08-27 18:43:00,75.5,70.7,29.82,NNW,337,1.0,6.0,85,0.00,,FEW030,1.65,VWS V14.01,2013-08-27 23:43:00,
2013-08-27 18:44:00,75.5,71.0,29.82,NNW,337,3.0,6.0,86,0.00,,FEW030,1.65,VWS V14.01,2013-08-27 23:44:00,
2013-08-27 18:47:00,75.4,70.6,29.82,NNW,337,5.0,6.0,85,0.00,,FEW030,1.65,VWS V14.01,2013-08-27 23:47:00,
2013-08-27 18:48:00,75.3,70.5,29.82,NNW,337,4.0,6.0,85,0.00,,FEW030,1.65,VWS V14.01,2013-08-27 23:48:00,
2013-08-27 18:49:00,75.2,70.4,29.82,NNW,337,4.0,6.0,85,0.00,,FEW030,1.65,VWS V14.01,2013-08-27 23:49:00,
2013-08-27 18:52:00,75.1,70.6,29.82,NNW,336,2.0,6.0,86,0.00,,FEW030,1.65,VWS V14.01,2013-08-27 23:52:00,
2013-08-27 18:53:00,75.1,70.6,29.82,NNW,336,2.0,6.0,86,0.00,,FEW030,1.65,VWS V14.01,2013-08-27 23:53:00,
2013-08-27 18:54:00,75.0,70.5,29.82,NNW,336,2.0,4.0,86,0.00,,FEW030,1.65,VWS V14.01,2013-08-27 23:54:00,
2013-08-27 18:57:00,74.9,70.4,29.82,NNW,336,2.0,4.0,86,0.00,,FEW030,1.65,VWS V14.01,2013-08-27 23:57:00,
2013-08-27 18:58:00,74.8,70.3,29.82,NNW,333,2.0,4.0,86,0.00,,FEW030,1.65,VWS V14.01,2013-08-27 23:58:00,
2013-08-27 18:59:00,74.7,70.2,29.82,NNW,333,4.0,5.0,86,0.00,,FEW030,1.65,VWS V14.01,2013-08-27 23:59:00,
2013-08-27 19:02:00,74.6,70.1,29.82,NNW,336,2.0,5.0,86,0.00,,FEW030,1.65,VWS V14.01,2013-08-28 00:02:00,
2013-08-27 19:03:00,74.6,70.5,29.82,NNW,336,0.0,5.0,87,0.00,,FEW030,1.65,VWS V14.01,2013-08-28 00:03:00,
2013-08-27 19:04:00,74.6,70.5,29.82,NNW,336,0.0,5.0,87,0.00,,FEW030,1.65,VWS V14.01,2013-08-28 00:04:00,
2013-08-27 19:08:00,74.5,70.4,29.82,NNW,336,2.0,5.0,87,0.00,,FEW030,1.65,VWS V14.01,2013-08-28 00:08:00,
2013-08-27 19:09:00,74.5,70.4,29.82,NNW,336,4.0,5.0,87,0.00,,FEW030,1.65,VWS V14.01,2013-08-28 00:09:00,
2013-08-27 19:10:00,74.4,70.3,29.82,NNW,336,1.0,5.0,87,0.00,,FEW030,1.65,VWS V14.01,2013-08-28 00:10:00,
2013-08-27 19:13:00,74.3,70.2,29.82,NNW,336,1.0,5.0,87,0.00,,FEW030,1.65,VWS V14.01,2013-08-28 00:13:00,
2013-08-27 19:14:00,74.3,70.2,29.82,NNW,336,2.0,5.0,87,0.00,,FEW030,1.65,VWS V14.01,2013-08-28 00:14:00,
2013-08-27 19:15:00,74.2,70.4,29.82,NNW,336,0.0,5.0,88,0.00,,FEW030,1.65,VWS V14.01,2013-08-28 00:15:00,
2013-08-27 19:18:00,74.1,70.3,29.82,NNW,336,2.0,5.0,88,0.00,,FEW030,1.65,VWS V14.01,2013-08-28 00:18:00,
2013-08-27 19:19:00,74.0,70.2,29.82,NNW,336,1.0,5.0,88,0.00,,FEW030,1.65,VWS V14.01,2013-08-28 00:19:00,
2013-08-27 19:20:00,73.9,70.1,29.82,NNW,336,1.0,5.0,88,0.00,,FEW030,1.65,VWS V14.01,2013-08-28 00:20:00,
2013-08-27 19:23:00,73.7,69.9,29.82,NNW,336,0.0,0.0,88,0.00,,FEW030,1.65,VWS V14.01,2013-08-28 00:23:00,
2013-08-27 19:24:00,73.7,69.9,29.82,NNW,336,0.0,3.0,88,0.00,,FEW030,1.65,VWS V14.01,2013-08-28 00:24:00,
2013-08-27 19:25:00,73.6,69.8,29.82,NNW,336,2.0,4.0,88,0.00,,FEW030,1.65,VWS V14.01,2013-08-28 00:25:00,
2013-08-27 19:26:00,73.6,69.8,29.82,NNW,336,4.0,4.0,88,0.00,,FEW030,1.65,VWS V14.01,2013-08-28 00:26:00,
2013-08-27 19:28:00,73.4,70.0,29.82,NNW,336,2.0,4.0,89,0.00,,FEW030,1.65,VWS V14.01,2013-08-28 00:28:00,
2013-08-27 19:29:00,73.4,70.0,29.82,NNW,336,1.0,4.0,89,0.00,,FEW030,1.65,VWS V14.01,2013-08-28 00:29:00,
2013-08-27 19:31:00,73.3,69.9,29.82,NNW,336,0.0,4.0,89,0.00,,FEW030,1.65,VWS V14.01,2013-08-28 00:31:00,
2013-08-27 19:33:00,73.1,69.7,29.82,NNW,336,0.0,4.0,89,0.00,,FEW030,1.65,VWS V14.01,2013-08-28 00:33:00,
2013-08-27 19:34:00,73.1,69.7,29.82,NNW,336,0.0,4.0,89,0.00,,FEW030,1.65,VWS V14.01,2013-08-28 00:34:00,
2013-08-27 19:36:00,73.0,69.6,29.82,NNW,336,0.0,4.0,89,0.00,,FEW030,1.65,VWS V14.01,2013-08-28 00:36:00,
2013-08-27 19:37:00,72.9,69.5,29.82,NNW,336,0.0,4.0,89,0.00,,FEW030,1.65,VWS V14.01,2013-08-28 00:37:00,
2013-08-27 19:38:00,72.9,69.5,29.82,NNW,336,0.0,4.0,89,0.00,,FEW030,1.65,VWS V14.01,2013-08-28 00:38:00,
2013-08-27 19:39:00,72.9,69.5,29.82,NNW,336,0.0,4.0,89,0.00,,FEW030,1.65,VWS V14.01,2013-08-28 00:39:00,
2013-08-27 19:40:00,72.8,69.7,29.82,NNW,336,0.0,4.0,90,0.00,,FEW030,1.65,VWS V14.01,2013-08-28 00:40:00,
2013-08-27 19:41:00,72.8,69.7,29.83,NNW,336,1.0,4.0,90,0.00,,FEW030,1.65,VWS V14.01,2013-08-28 00:41:00,
2013-08-27 19:42:00,72.7,69.6,29.83,NNW,336,2.0,4.0,90,0.00,,FEW030,1.65,VWS V14.01,2013-08-28 00:42:00,
2013-08-27 19:44:00,72.6,69.5,29.83,NNW,336,0.0,4.0,90,0.00,,FEW030,1.65,VWS V14.01,2013-08-28 00:44:00,
2013-08-27 19:45:00,72.5,69.4,29.82,NNW,336,0.0,4.0,90,0.00,,FEW030,1.65,VWS V14.01,2013-08-28 00:45:00,
2013-08-27 19:46:00,72.4,69.3,29.83,NNW,336,0.0,4.0,90,0.00,,FEW030,1.65,VWS V14.01,2013-08-28 00:46:00,
2013-08-27 19:47:00,72.3,69.2,29.82,NNW,336,0.0,4.0,90,0.00,,FEW030,1.65,VWS V14.01,2013-08-28 00:47:00,
2013-08-27 19:49:00,72.2,69.1,29.83,NNW,336,0.0,4.0,90,0.00,,FEW030,1.65,VWS V14.01,2013-08-28 00:49:00,
2013-08-27 19:50:00,72.2,69.4,29.83,NNW,336,0.0,4.0,91,0.00,,FEW030,1.65,VWS V14.01,2013-08-28 00:50:00,
2013-08-27 19:52:00,72.1,69.3,29.83,NNW,336,0.0,4.0,91,0.00,,FEW030,1.65,VWS V14.01,2013-08-28 00:52:00,
2013-08-27 19:54:00,72.0,69.2,29.83,NNW,336,0.0,0.0,91,0.00,,FEW030,1.65,VWS V14.01,2013-08-28 00:54:00,
2013-08-27 19:55:00,71.9,69.1,29.83,NNW,336,0.0,0.0,91,0.00,,FEW030,1.65,VWS V14.01,2013-08-28 00:55:00,
2013-08-27 19:57:00,71.9,69.1,29.83,NNW,336,0.0,0.0,91,0.00,,FEW030,1.65,VWS V14.01,2013-08-28 00:57:00,
2013-08-27 19:59:00,71.6,68.8,29.83,NNW,336,0.0,1.0,91,0.00,,FEW030,1.65,VWS V14.01,2013-08-28 00:59:00,
2013-08-27 20:00:00,71.6,68.8,29.83,NNW,336,0.0,1.0,91,0.00,,FEW030,1.65,VWS V14.01,2013-08-28 01:00:00,
2013-08-27 20:02:00,71.4,69.0,29.83,NNW,336,0.0,1.0,92,0.00,,FEW030,1.65,VWS V14.01,2013-08-28 01:02:00,
2013-08-27 20:05:00,71.1,68.7,29.83,NNW,336,0.0,1.0,92,0.00,,FEW030,1.65,VWS V14.01,2013-08-28 01:05:00,
2013-08-27 20:07:00,70.9,68.5,29.84,NNW,336,1.0,2.0,92,0.00,,FEW030,1.65,VWS V14.01,2013-08-28 01:07:00,
2013-08-27 20:08:00,70.8,68.4,29.84,NNW,336,0.0,2.0,92,0.00,,FEW030,1.65,VWS V14.01,2013-08-28 01:08:00,
2013-08-27 20:10:00,70.5,68.1,29.84,NNW,336,2.0,2.0,92,0.00,,FEW030,1.65,VWS V14.01,2013-08-28 01:10:00,
2013-08-27 20:11:00,70.5,68.1,29.84,NNW,336,2.0,3.0,92,0.00,,FEW030,1.65,VWS V14.01,2013-08-28 01:11:00,
2013-08-27 20:13:00,70.2,67.8,29.84,NNW,336,1.0,4.0,92,0.00,,FEW030,1.65,VWS V14.01,2013-08-28 01:13:00,
2013-08-27 20:15:00,69.9,67.8,29.84,NNW,336,2.0,4.0,93,0.00,,FEW030,1.65,VWS V14.01,2013-08-28 01:15:00,
2013-08-27 20:16:00,69.8,67.7,29.84,NNW,337,2.0,4.0,93,0.00,,FEW030,1.65,VWS V14.01,2013-08-28 01:16:00,
2013-08-27 20:17:00,69.7,67.6,29.84,NNW,336,1.0,4.0,93,0.00,,FEW030,1.65,VWS V14.01,2013-08-28 01:17:00,
2013-08-27 20:18:00,69.6,67.5,29.84,NNW,336,1.0,4.0,93,0.00,,FEW030,1.65,VWS V14.01,2013-08-28 01:18:00,
2013-08-27 20:20:00,69.4,67.3,29.84,NNW,336,4.0,4.0,93,0.00,,FEW030,1.65,VWS V14.01,2013-08-28 01:20:00,
2013-08-27 20:21:00,69.4,67.3,29.84,NNW,337,2.0,5.0,93,0.00,,FEW030,1.65,VWS V14.01,2013-08-28 01:21:00,
2013-08-27 20:22:00,69.3,67.5,29.84,NNW,338,2.0,5.0,94,0.00,,FEW030,1.65,VWS V14.01,2013-08-28 01:22:00,
2013-08-27 20:23:00,69.2,67.4,29.84,NNW,338,0.0,2.0,94,0.00,,FEW030,1.65,VWS V14.01,2013-08-28 01:23:00,
2013-08-27 20:24:00,69.2,67.4,29.84,NNW,338,3.0,4.0,94,0.00,,FEW030,1.65,VWS V14.01,2013-08-28 01:24:00,
2013-08-27 20:25:00,69.1,67.3,29.84,NNW,338,0.0,4.0,94,0.00,,FEW030,1.65,VWS V14.01,2013-08-28 01:25:00,
2013-08-27 20:26:00,69.1,67.3,29.84,NNW,338,0.0,4.0,94,0.00,,FEW030,1.65,VWS V14.01,2013-08-28 01:26:00,
2013-08-27 20:27:00,69.0,67.5,29.84,NNW,338,0.0,4.0,95,0.00,,FEW030,1.65,VWS V14.01,2013-08-28 01:27:00,
2013-08-27 20:28:00,69.0,67.5,29.84,NNW,338,4.0,4.0,95,0.00,,FEW030,1.65,VWS V14.01,2013-08-28 01:28:00,
2013-08-27 20:29:00,69.0,67.5,29.84,NNW,338,2.0,4.0,95,0.00,,FEW030,1.65,VWS V14.01,2013-08-28 01:29:00,
2013-08-27 20:30:00,68.9,67.4,29.84,NNW,338,0.0,4.0,95,0.00,,FEW030,1.65,VWS V14.01,2013-08-28 01:30:00,
2013-08-27 20:31:00,69.0,67.5,29.84,NNW,338,0.0,4.0,95,0.00,,FEW030,1.65,VWS V14.01,2013-08-28 01:31:00,
2013-08-27 20:33:00,68.9,67.4,29.84,NNW,338,0.0,4.0,95,0.00,,FEW030,1.65,VWS V14.01,2013-08-28 01:33:00,
2013-08-27 20:34:00,68.9,67.4,29.84,NNW,338,0.0,4.0,95,0.00,,FEW030,1.65,VWS V14.01,2013-08-28 01:34:00,
2013-08-27 20:37:00,68.9,67.7,29.85,NNW,338,0.0,4.0,96,0.00,,FEW030,1.65,VWS V14.01,2013-08-28 01:37:00,
2013-08-27 20:38:00,68.9,67.7,29.85,NNW,338,0.0,4.0,96,0.00,,FEW030,1.65,VWS V14.01,2013-08-28 01:38:00,
2013-08-27 20:39:00,68.8,67.6,29.85,NNW,338,0.0,4.0,96,0.00,,FEW030,1.65,VWS V14.01,2013-08-28 01:39:00,
2013-08-27 20:42:00,68.8,67.6,29.85,NNW,338,4.0,4.0,96,0.00,,FEW030,1.65,VWS V14.01,2013-08-28 01:42:00,
2013-08-27 20:44:00,68.7,67.5,29.85,NNW,338,1.0,4.0,96,0.00,,FEW030,1.65,VWS V14.01,2013-08-28 01:44:00,
2013-08-27 20:45:00,68.7,67.5,29.85,NNW,345,2.0,4.0,96,0.00,,FEW030,1.65,VWS V14.01,2013-08-28 01:45:00,
2013-08-27 20:47:00,68.6,67.4,29.85,North,360,0.0,4.0,96,0.00,,FEW030,1.65,VWS V14.01,2013-08-28 01:47:00,
2013-08-27 20:48:00,68.5,67.3,29.85,North,360,0.0,4.0,96,0.00,,FEW030,1.65,VWS V14.01,2013-08-28 01:48:00,
2013-08-27 20:49:00,68.5,67.3,29.85,North,360,0.0,4.0,96,0.00,,FEW030,1.65,VWS V14.01,2013-08-28 01:49:00,
2013-08-27 20:50:00,68.5,67.3,29.85,North,360,0.0,4.0,96,0.00,,FEW030,1.65,VWS V14.01,2013-08-28 01:50:00,
2013-08-27 20:53:00,68.4,67.2,29.85,North,360,1.0,4.0,96,0.00,,FEW030,1.65,VWS V14.01,2013-08-28 01:53:00,
2013-08-27 20:54:00,68.4,67.2,29.86,North,360,2.0,2.0,96,0.00,,FEW030,1.65,VWS V14.01,2013-08-28 01:54:00,
2013-08-27 20:55:00,68.3,67.1,29.86,North,360,2.0,5.0,96,0.00,,FEW030,1.65,VWS V14.01,2013-08-28 01:55:00,
2013-08-27 20:58:00,68.2,67.0,29.86,North,360,2.0,5.0,96,0.00,,FEW030,1.65,VWS V14.01,2013-08-28 01:58:00,
2013-08-27 20:59:00,68.1,66.9,29.86,NNW,340,3.0,5.0,96,0.00,,FEW030,1.65,VWS V14.01,2013-08-28 01:59:00,
2013-08-27 21:00:00,68.1,66.9,29.86,NNW,340,0.0,5.0,96,0.00,,FEW030,1.65,VWS V14.01,2013-08-28 02:00:00,
2013-08-27 21:03:00,68.0,67.1,29.86,NNW,339,4.0,5.0,97,0.00,,FEW030,1.65,VWS V14.01,2013-08-28 02:03:00,
2013-08-27 21:04:00,68.0,67.1,29.86,NNW,339,4.0,5.0,97,0.00,,FEW030,1.65,VWS V14.01,2013-08-28 02:04:00,
2013-08-27 21:05:00,67.9,67.0,29.86,NNW,339,3.0,5.0,97,0.00,,FEW030,1.65,VWS V14.01,2013-08-28 02:05:00,
2013-08-27 21:06:00,67.9,67.0,29.86,NNW,339,4.0,5.0,97,0.00,,FEW030,1.65,VWS V14.01,2013-08-28 02:06:00,
2013-08-27 21:08:00,67.8,66.9,29.86,NNW,339,3.0,5.0,97,0.00,,FEW030,1.65,VWS V14.01,2013-08-28 02:08:00,
2013-08-27 21:09:00,67.8,66.9,29.86,NNW,339,0.0,5.0,97,0.00,,FEW030,1.65,VWS V14.01,2013-08-28 02:09:00,
2013-08-27 21:11:00,67.7,66.8,29.86,NNW,339,0.0,5.0,97,0.00,,FEW030,1.65,VWS V14.01,2013-08-28 02:11:00,
2013-08-27 21:14:00,67.6,66.7,29.86,NNW,339,0.0,5.0,97,0.00,,FEW030,1.65,VWS V14.01,2013-08-28 02:14:00,
2013-08-27 21:15:00,67.6,66.7,29.86,NNW,339,0.0,5.0,97,0.00,,FEW030,1.65,VWS V14.01,2013-08-28 02:15:00,
2013-08-27 21:16:00,67.6,66.7,29.86,NNW,339,0.0,5.0,97,0.00,,FEW030,1.65,VWS V14.01,2013-08-28 02:16:00,
2013-08-27 21:17:00,67.6,66.7,29.86,NNW,339,0.0,5.0,97,0.00,,FEW030,1.65,VWS V14.01,2013-08-28 02:17:00,
2013-08-27 21:20:00,67.6,66.7,29.86,NNW,339,0.0,5.0,97,0.00,,FEW030,1.65,VWS V14.01,2013-08-28 02:20:00,
2013-08-27 21:21:00,67.6,66.7,29.86,NNW,339,0.0,5.0,97,0.00,,,1.65,VWS V14.01,2013-08-28 02:21:00,
2013-08-27 21:22:00,67.6,66.7,29.86,NNW,339,0.0,5.0,97,0.00,,,1.65,VWS V14.01,2013-08-28 02:22:00,
2013-08-27 21:25:00,67.6,66.7,29.86,NNW,339,0.0,0.0,97,0.00,,,1.65,VWS V14.01,2013-08-28 02:25:00,
2013-08-27 21:26:00,67.6,66.7,29.86,NNW,339,0.0,0.0,97,0.00,,,1.65,VWS V14.01,2013-08-28 02:26:00,
2013-08-27 21:27:00,67.6,66.7,29.86,NNW,339,0.0,0.0,97,0.00,,,1.65,VWS V14.01,2013-08-28 02:27:00,
2013-08-27 21:28:00,67.6,66.7,29.86,NNW,339,0.0,1.0,97,0.00,,,1.65,VWS V14.01,2013-08-28 02:28:00,
2013-08-27 21:30:00,67.6,66.7,29.86,NNW,340,2.0,2.0,97,0.00,,,1.65,VWS V14.01,2013-08-28 02:30:00,
2013-08-27 21:32:00,67.5,66.6,29.86,NNW,339,0.0,2.0,97,0.00,,,1.65,VWS V14.01,2013-08-28 02:32:00,
2013-08-27 21:33:00,67.4,66.5,29.86,NNW,339,1.0,2.0,97,0.00,,,1.65,VWS V14.01,2013-08-28 02:33:00,
2013-08-27 21:35:00,67.4,66.5,29.86,NNW,339,0.0,2.0,97,0.00,,,1.65,VWS V14.01,2013-08-28 02:35:00,
2013-08-27 21:36:00,67.4,66.5,29.86,NNW,340,0.0,2.0,97,0.00,,,1.65,VWS V14.01,2013-08-28 02:36:00,
2013-08-27 21:37:00,67.4,66.8,29.86,NNW,340,0.0,2.0,98,0.00,,,1.65,VWS V14.01,2013-08-28 02:37:00,
2013-08-27 21:38:00,67.3,66.7,29.86,NNW,339,0.0,2.0,98,0.00,,,1.65,VWS V14.01,2013-08-28 02:38:00,
2013-08-27 21:40:00,67.3,66.7,29.86,NNW,339,0.0,2.0,98,0.00,,,1.65,VWS V14.01,2013-08-28 02:40:00,
2013-08-27 21:41:00,67.2,66.6,29.86,NNW,339,0.0,2.0,98,0.00,,,1.65,VWS V14.01,2013-08-28 02:41:00,
2013-08-27 21:42:00,67.2,66.6,29.86,NNW,339,0.0,2.0,98,0.00,,,1.65,VWS V14.01,2013-08-28 02:42:00,
2013-08-27 21:43:00,67.2,66.6,29.86,NNW,339,0.0,2.0,98,0.00,,,1.65,VWS V14.01,2013-08-28 02:43:00,
2013-08-27 21:45:00,67.2,66.6,29.86,NNW,339,0.0,2.0,98,0.00,,,1.65,VWS V14.01,2013-08-28 02:45:00,
2013-08-27 21:46:00,67.2,66.6,29.86,NNW,339,0.0,2.0,98,0.00,,,1.65,VWS V14.01,2013-08-28 02:46:00,
2013-08-27 21:47:00,67.2,66.6,29.86,NNW,339,0.0,2.0,98,0.00,,,1.65,VWS V14.01,2013-08-28 02:47:00,
2013-08-27 21:50:00,67.1,66.5,29.86,NNW,339,0.0,2.0,98,0.00,,,1.65,VWS V14.01,2013-08-28 02:50:00,
2013-08-27 21:52:00,67.1,66.5,29.86,NNW,339,0.0,2.0,98,0.00,,,1.65,VWS V14.01,2013-08-28 02:52:00,
2013-08-27 21:55:00,67.1,66.5,29.86,NNW,339,0.0,0.0,98,0.00,,,1.65,VWS V14.01,2013-08-28 02:55:00,
2013-08-27 21:56:00,67.0,66.4,29.86,NNW,339,0.0,0.0,98,0.00,,,1.65,VWS V14.01,2013-08-28 02:56:00,
2013-08-27 21:58:00,67.0,66.4,29.86,NNW,339,0.0,0.0,98,0.00,,,1.65,VWS V14.01,2013-08-28 02:58:00,
2013-08-27 22:00:00,67.0,66.4,29.86,NNW,339,0.0,0.0,98,0.00,,,1.65,VWS V14.01,2013-08-28 03:00:00,
2013-08-27 22:01:00,67.0,66.4,29.86,NNW,339,0.0,0.0,98,0.00,,,1.65,VWS V14.01,2013-08-28 03:01:00,
2013-08-27 22:03:00,67.0,66.4,29.86,NNW,339,0.0,0.0,98,0.00,,,1.65,VWS V14.01,2013-08-28 03:03:00,
2013-08-27 22:05:00,67.0,66.4,29.86,NNW,339,0.0,0.0,98,0.00,,,1.65,VWS V14.01,2013-08-28 03:05:00,
2013-08-27 22:06:00,66.9,66.3,29.86,NNW,339,0.0,0.0,98,0.00,,,1.65,VWS V14.01,2013-08-28 03:06:00,
2013-08-27 22:07:00,66.9,66.3,29.86,NNW,340,0.0,0.0,98,0.00,,,1.65,VWS V14.01,2013-08-28 03:07:00,
2013-08-27 22:08:00,66.9,66.3,29.86,NNW,339,0.0,0.0,98,0.00,,,1.65,VWS V14.01,2013-08-28 03:08:00,
2013-08-27 22:11:00,66.9,66.3,29.85,NNW,339,0.0,0.0,98,0.00,,,1.65,VWS V14.01,2013-08-28 03:11:00,
2013-08-27 22:12:00,66.9,66.3,29.86,NNW,339,0.0,0.0,98,0.00,,,1.65,VWS V14.01,2013-08-28 03:12:00,
2013-08-27 22:13:00,66.9,66.3,29.86,NNW,339,0.0,0.0,98,0.00,,,1.65,VWS V14.01,2013-08-28 03:13:00,
2013-08-27 22:14:00,66.9,66.3,29.86,NNW,339,0.0,0.0,98,0.00,,,1.65,VWS V14.01,2013-08-28 03:14:00,
2013-08-27 22:17:00,66.8,66.2,29.86,NNW,339,0.0,0.0,98,0.00,,,1.65,VWS V14.01,2013-08-28 03:17:00,
2013-08-27 22:18:00,66.8,66.2,29.85,NNW,339,0.0,0.0,98,0.00,,,1.65,VWS V14.01,2013-08-28 03:18:00,
2013-08-27 22:19:00,66.8,66.2,29.85,NNW,339,0.0,0.0,98,0.00,,,1.65,VWS V14.01,2013-08-28 03:19:00,
2013-08-27 22:22:00,66.8,66.2,29.86,NNW,339,0.0,1.0,98,0.00,,,1.65,VWS V14.01,2013-08-28 03:22:00,
2013-08-27 22:24:00,66.7,66.1,29.86,NNW,339,1.0,1.0,98,0.00,,,1.65,VWS V14.01,2013-08-28 03:24:00,
2013-08-27 22:27:00,66.6,66.0,29.86,NNW,339,0.0,2.0,98,0.00,,,1.65,VWS V14.01,2013-08-28 03:27:00,
2013-08-27 22:29:00,66.6,66.0,29.86,NNW,339,1.0,2.0,98,0.00,,,1.65,VWS V14.01,2013-08-28 03:29:00,
2013-08-27 22:32:00,66.5,65.9,29.86,NNW,339,0.0,2.0,98,0.00,,,1.65,VWS V14.01,2013-08-28 03:32:00,
2013-08-27 22:34:00,66.5,65.9,29.86,NNW,339,0.0,2.0,98,0.00,,,1.65,VWS V14.01,2013-08-28 03:34:00,
2013-08-27 22:35:00,66.5,65.9,29.86,NNW,339,0.0,2.0,98,0.00,,,1.65,VWS V14.01,2013-08-28 03:35:00,
2013-08-27 22:37:00,66.5,65.9,29.86,NNW,339,0.0,2.0,98,0.00,,,1.65,VWS V14.01,2013-08-28 03:37:00,
2013-08-27 22:39:00,66.5,65.9,29.86,NNW,339,1.0,2.0,98,0.00,,,1.65,VWS V14.01,2013-08-28 03:39:00,
2013-08-27 22:40:00,66.5,65.9,29.86,NNW,339,5.0,5.0,98,0.00,,,1.65,VWS V14.01,2013-08-28 03:40:00,
2013-08-27 22:42:00,66.4,65.8,29.86,NNW,339,1.0,5.0,98,0.00,,,1.65,VWS V14.01,2013-08-28 03:42:00,
2013-08-27 22:43:00,66.5,65.9,29.86,NNW,339,0.0,5.0,98,0.00,,,1.65,VWS V14.01,2013-08-28 03:43:00,
2013-08-27 22:44:00,66.4,65.8,29.87,NNW,339,0.0,5.0,98,0.00,,,1.65,VWS V14.01,2013-08-28 03:44:00,
2013-08-27 22:45:00,66.4,65.8,29.87,NNW,339,0.0,5.0,98,0.00,,,1.65,VWS V14.01,2013-08-28 03:45:00,
2013-08-27 22:46:00,66.4,65.8,29.86,NNW,339,0.0,5.0,98,0.00,,,1.65,VWS V14.01,2013-08-28 03:46:00,
2013-08-27 22:48:00,66.4,65.8,29.86,NNW,339,0.0,5.0,98,0.00,,,1.65,VWS V14.01,2013-08-28 03:48:00,
2013-08-27 22:49:00,66.4,65.8,29.86,NNW,339,0.0,5.0,98,0.00,,,1.65,VWS V14.01,2013-08-28 03:49:00,
2013-08-27 22:50:00,66.4,65.8,29.86,NNW,339,0.0,5.0,98,0.00,,,1.65,VWS V14.01,2013-08-28 03:50:00,
2013-08-27 22:51:00,66.4,65.8,29.86,NNW,339,0.0,5.0,98,0.00,,,1.65,VWS V14.01,2013-08-28 03:51:00,
2013-08-27 22:53:00,66.4,65.8,29.86,NNW,339,0.0,5.0,98,0.00,,,1.65,VWS V14.01,2013-08-28 03:53:00,
2013-08-27 22:55:00,66.3,65.7,29.87,NNW,339,0.0,2.0,98,0.00,,,1.65,VWS V14.01,2013-08-28 03:55:00,
2013-08-27 22:56:00,66.4,65.8,29.87,NNW,339,0.0,2.0,98,0.00,,,1.65,VWS V14.01,2013-08-28 03:56:00,
2013-08-27 22:57:00,66.4,65.8,29.87,NNW,339,0.0,2.0,98,0.00,,,1.65,VWS V14.01,2013-08-28 03:57:00,
2013-08-27 22:58:00,66.4,65.8,29.87,NNW,339,0.0,4.0,98,0.00,,,1.65,VWS V14.01,2013-08-28 03:58:00,
2013-08-27 23:00:00,66.3,65.7,29.87,NNW,339,0.0,4.0,98,0.00,,,1.65,VWS V14.01,2013-08-28 04:00:00,
2013-08-27 23:01:00,66.3,65.7,29.87,NNW,339,1.0,4.0,98,0.00,,,1.65,VWS V14.01,2013-08-28 04:01:00,
2013-08-27 23:06:00,66.2,65.6,29.87,NNW,339,1.0,5.0,98,0.00,,,1.65,VWS V14.01,2013-08-28 04:06:00,
2013-08-27 23:07:00,66.1,65.5,29.87,NNW,339,2.0,5.0,98,0.00,,,1.65,VWS V14.01,2013-08-28 04:07:00,
2013-08-27 23:11:00,66.1,65.5,29.87,NNW,339,3.0,5.0,98,0.00,,,1.65,VWS V14.01,2013-08-28 04:11:00,
2013-08-27 23:12:00,66.0,65.4,29.87,NNW,339,2.0,5.0,98,0.00,,,1.65,VWS V14.01,2013-08-28 04:12:00,
2013-08-27 23:13:00,66.0,65.4,29.87,NNW,339,4.0,5.0,98,0.00,,,1.65,VWS V14.01,2013-08-28 04:13:00,
2013-08-27 23:14:00,66.0,65.4,29.87,NNW,339,1.0,5.0,98,0.00,,,1.65,VWS V14.01,2013-08-28 04:14:00,
2013-08-27 23:16:00,65.9,65.3,29.88,NNW,339,0.0,5.0,98,0.00,,,1.65,VWS V14.01,2013-08-28 04:16:00,
2013-08-27 23:17:00,65.9,65.3,29.88,NNW,339,0.0,5.0,98,0.00,,,1.65,VWS V14.01,2013-08-28 04:17:00,
2013-08-27 23:18:00,65.9,65.3,29.88,NNW,340,0.0,5.0,98,0.00,,,1.65,VWS V14.01,2013-08-28 04:18:00,
2013-08-27 23:20:00,65.9,65.3,29.88,NNW,339,0.0,5.0,98,0.00,,,1.65,VWS V14.01,2013-08-28 04:20:00,
2013-08-27 23:21:00,65.9,65.3,29.88,NNW,339,2.0,5.0,98,0.00,,,1.65,VWS V14.01,2013-08-28 04:21:00,
2013-08-27 23:22:00,66.0,65.4,29.88,NNW,339,0.0,5.0,98,0.00,,,1.65,VWS V14.01,2013-08-28 04:22:00,
2013-08-27 23:23:00,65.9,65.3,29.88,NNW,339,0.0,0.0,98,0.00,,,1.65,VWS V14.01,2013-08-28 04:23:00,
2013-08-27 23:25:00,65.9,65.3,29.88,NNW,339,1.0,1.0,98,0.00,,,1.65,VWS V14.01,2013-08-28 04:25:00,
2013-08-27 23:26:00,65.9,65.3,29.88,NNW,339,0.0,2.0,98,0.00,,,1.65,VWS V14.01,2013-08-28 04:26:00,
2013-08-27 23:27:00,65.9,65.3,29.88,NNW,339,0.0,2.0,98,0.00,,,1.65,VWS V14.01,2013-08-28 04:27:00,
2013-08-27 23:28:00,65.8,65.2,29.88,NNW,339,0.0,2.0,98,0.00,,,1.65,VWS V14.01,2013-08-28 04:28:00,
2013-08-27 23:30:00,65.8,65.2,29.88,NNW,339,0.0,2.0,98,0.00,,,1.65,VWS V14.01,2013-08-28 04:30:00,
2013-08-27 23:31:00,65.8,65.2,29.88,NNW,339,0.0,3.0,98,0.00,,,1.65,VWS V14.01,2013-08-28 04:31:00,
2013-08-27 23:32:00,65.8,65.2,29.88,NNW,339,0.0,3.0,98,0.00,,,1.65,VWS V14.01,2013-08-28 04:32:00,
2013-08-27 23:33:00,65.7,65.1,29.88,NNW,339,0.0,3.0,98,0.00,,,1.65,VWS V14.01,2013-08-28 04:33:00,
2013-08-27 23:34:00,65.7,65.1,29.88,NNW,339,0.0,3.0,98,0.00,,,1.65,VWS V14.01,2013-08-28 04:34:00,
2013-08-27 23:35:00,65.7,65.1,29.88,NNW,339,0.0,3.0,98,0.00,,,1.65,VWS V14.01,2013-08-28 04:35:00,
2013-08-27 23:36:00,65.7,65.1,29.88,NNW,339,0.0,3.0,98,0.00,,,1.65,VWS V14.01,2013-08-28 04:36:00,
2013-08-27 23:37:00,65.7,65.1,29.88,NNW,339,0.0,3.0,98,0.00,,,1.65,VWS V14.01,2013-08-28 04:37:00,
2013-08-27 23:40:00,65.7,65.1,29.88,NNW,339,0.0,3.0,98,0.00,,,1.65,VWS V14.01,2013-08-28 04:40:00,
2013-08-27 23:41:00,65.7,65.1,29.88,NNW,339,0.0,3.0,98,0.00,,,1.65,VWS V14.01,2013-08-28 04:41:00,
2013-08-27 23:42:00,65.7,65.1,29.88,NNW,339,0.0,3.0,98,0.00,,,1.65,VWS V14.01,2013-08-28 04:42:00,
2013-08-27 23:44:00,65.6,65.0,29.88,NNW,339,0.0,3.0,98,0.00,,,1.65,VWS V14.01,2013-08-28 04:44:00,
2013-08-27 23:46:00,65.6,65.0,29.88,NNW,340,0.0,3.0,98,0.00,,,1.65,VWS V14.01,2013-08-28 04:46:00,
2013-08-27 23:47:00,65.6,65.0,29.88,NNW,339,0.0,3.0,98,0.00,,,1.65,VWS V14.01,2013-08-28 04:47:00,
2013-08-27 23:48:00,65.6,65.0,29.88,NNW,339,0.0,3.0,98,0.00,,,1.65,VWS V14.01,2013-08-28 04:48:00,
2013-08-27 23:49:00,65.6,65.0,29.88,NNW,339,0.0,3.0,98,0.00,,,1.65,VWS V14.01,2013-08-28 04:49:00,
2013-08-27 23:51:00,65.6,65.0,29.88,NNW,339,0.0,3.0,98,0.00,,,1.65,VWS V14.01,2013-08-28 04:51:00,
2013-08-27 23:52:00,65.6,65.0,29.88,NNW,340,0.0,3.0,98,0.00,,,1.65,VWS V14.01,2013-08-28 04:52:00,
2013-08-27 23:53:00,65.6,65.0,29.88,NNW,339,0.0,3.0,98,0.00,,,1.65,VWS V14.01,2013-08-28 04:53:00,
2013-08-27 23:54:00,65.6,65.0,29.89,NNW,339,2.0,2.0,98,0.00,,,0.00,VWS V14.01,2013-08-28 04:54:00,
2013-08-27 23:56:00,65.6,65.0,29.89,NNW,339,3.0,3.0,98,0.00,,,0.00,VWS V14.01,2013-08-28 04:56:00,
2013-08-27 23:57:00,65.6,65.3,29.89,NNW,339,1.0,3.0,99,0.00,,,0.00,VWS V14.01,2013-08-28 04:57:00,
2013-08-27 23:58:00,65.6,65.3,29.89,NNW,339,2.0,3.0,99,0.00,,,0.00,VWS V14.01,2013-08-28 04:58:00,
2013-08-27 23:59:00,65.6,65.3,29.89,NNW,339,1.0,3.0,99,0.00,,,0.00,VWS V14.01,2013-08-28 04:59:00,